Observation data for Palo Duro Canyon State Park Floor on 01/13/2021      Previous  Date  Next       Current Mesonet Observations  Soil Data  Daily Summary Page  Observations in Plain Language
KPD2 130600Z 32002KT M03/M04 A3016 RMK A01 T10311041  RH  093%=      5-min Rain = 0
KPD2 130601Z 32002KT M03/M04 A3016 RMK A01 T10311041  RH  093%=      5-min Rain = 0
KPD2 130602Z 33002KT M03/M04 A3016 RMK A01 T10301040  RH  093%=      5-min Rain = 0
KPD2 130603Z 33002KT M03/M04 A3016 RMK A01 T10301040  RH  093%=      5-min Rain = 0
KPD2 130604Z 32001KT M03/M04 A3016 RMK A01 T10321042  RH  093%=      5-min Rain = 0
KPD2 130605Z 32001KT M03/M04 A3016 RMK A01 T10321042  RH  093%=      5-min Rain = 0
KPD2 130606Z 00000KT M03/M04 A3016 RMK A01 T10321041  RH  093%=      5-min Rain = 0
KPD2 130607Z 24001KT M03/M04 A3016 RMK A01 T10311040  RH  093%=      5-min Rain = 0
KPD2 130608Z 24001KT M03/M04 A3016 RMK A01 T10311040  RH  093%=      5-min Rain = 0
KPD2 130609Z 16002KT M03/M04 A3016 RMK A01 T10311040  RH  093%=      5-min Rain = 0
KPD2 130610Z 15001KT M03/M04 A3016 RMK A01 T10311040  RH  093%=      5-min Rain = 0
KPD2 130611Z 14002KT M03/M04 A3016 RMK A01 T10311041  RH  093%=      5-min Rain = 0
KPD2 130612Z 13002KT M03/M04 A3016 RMK A01 T10321041  RH  093%=      5-min Rain = 0
KPD2 130613Z 12002KT M03/M04 A3016 RMK A01 T10331044  RH  092%=      5-min Rain = 0
KPD2 130614Z 12001KT M04/M05 A3016 RMK A01 T10351047  RH  092%=      5-min Rain = 0
KPD2 130615Z 00000KT M04/M05 A3016 RMK A01 T10361047  RH  092%=      5-min Rain = 0
KPD2 130616Z 00000KT M04/M05 A3016 RMK A01 T10371047  RH  092%=      5-min Rain = 0
KPD2 130617Z 12000KT M04/M05 A3016 RMK A01 T10381049  RH  092%=      5-min Rain = 0
KPD2 130618Z 12001KT M04/M05 A3016 RMK A01 T10381049  RH  092%=      5-min Rain = 0
KPD2 130619Z 12001KT M04/M05 A3016 RMK A01 T10391050  RH  092%=      5-min Rain = 0
KPD2 130620Z 12000KT M04/M05 A3015 RMK A01 T10401051  RH  092%=      5-min Rain = 0
KPD2 130621Z 12000KT M04/M05 A3015 RMK A01 T10411052  RH  092%=      5-min Rain = 0
KPD2 130622Z 12000KT M04/M05 A3015 RMK A01 T10411052  RH  092%=      5-min Rain = 0
KPD2 130623Z 17000KT M04/M05 A3015 RMK A01 T10411052  RH  092%=      5-min Rain = 0
KPD2 130624Z 17001KT M04/M05 A3015 RMK A01 T10411051  RH  093%=      5-min Rain = 0
KPD2 130625Z 00000KT M04/M05 A3015 RMK A01 T10401050  RH  093%=      5-min Rain = 0
KPD2 130626Z 17000KT M04/M05 A3015 RMK A01 T10391048  RH  093%=      5-min Rain = 0
KPD2 130627Z 17001KT M04/M05 A3015 RMK A01 T10381046  RH  094%=      5-min Rain = 0
KPD2 130628Z 17000KT M04/M05 A3015 RMK A01 T10371045  RH  094%=      5-min Rain = 0
KPD2 130629Z 00000KT M04/M04 A3015 RMK A01 T10351043  RH  094%=      5-min Rain = 0
KPD2 130630Z 00000KT M03/M04 A3015 RMK A01 T10331040  RH  095%=      5-min Rain = 0
KPD2 130631Z 00000KT M03/M04 A3015 RMK A01 T10321040  RH  095%=      5-min Rain = 0
KPD2 130632Z 17000KT M03/M04 A3015 RMK A01 T10331041  RH  094%=      5-min Rain = 0
KPD2 130633Z 16001KT M03/M04 A3015 RMK A01 T10331042  RH  094%=      5-min Rain = 0
KPD2 130634Z 13000KT M03/M04 A3015 RMK A01 T10341043  RH  094%=      5-min Rain = 0
KPD2 130635Z 00000KT M04/M04 A3015 RMK A01 T10351043  RH  094%=      5-min Rain = 0
KPD2 130636Z 00000KT M03/M04 A3015 RMK A01 T10341043  RH  094%=      5-min Rain = 0
KPD2 130637Z 00000KT M03/M04 A3015 RMK A01 T10331041  RH  094%=      5-min Rain = 0
KPD2 130638Z 00000KT M03/M04 A3015 RMK A01 T10321040  RH  094%=      5-min Rain = 0
KPD2 130639Z 10000KT M03/M04 A3015 RMK A01 T10301038  RH  095%=      5-min Rain = 0
KPD2 130640Z 10000KT M03/M04 A3015 RMK A01 T10301037  RH  095%=      5-min Rain = 0
KPD2 130641Z 10001KT M03/M04 A3015 RMK A01 T10301037  RH  095%=      5-min Rain = 0
KPD2 130642Z 10001KT M03/M04 A3015 RMK A01 T10311039  RH  094%=      5-min Rain = 0
KPD2 130643Z 10001KT M03/M04 A3015 RMK A01 T10321041  RH  094%=      5-min Rain = 0
KPD2 130644Z 10000KT M03/M04 A3015 RMK A01 T10341044  RH  093%=      5-min Rain = 0
KPD2 130645Z 10001KT M04/M05 A3015 RMK A01 T10361047  RH  092%=      5-min Rain = 0
KPD2 130646Z 10000KT M04/M05 A3016 RMK A01 T10371048  RH  092%=      5-min Rain = 0
KPD2 130647Z 19002KT M04/M05 A3016 RMK A01 T10381048  RH  092%=      5-min Rain = 0
KPD2 130648Z 24002KT M04/M05 A3016 RMK A01 T10391050  RH  092%=      5-min Rain = 0
KPD2 130649Z 24001KT M04/M05 A3016 RMK A01 T10411052  RH  092%=      5-min Rain = 0
KPD2 130650Z 24000KT M04/M05 A3016 RMK A01 T10411051  RH  092%=      5-min Rain = 0
KPD2 130651Z 24001KT M04/M05 A3016 RMK A01 T10411051  RH  093%=      5-min Rain = 0
KPD2 130652Z 00000KT M04/M05 A3016 RMK A01 T10391049  RH  093%=      5-min Rain = 0
KPD2 130653Z 24000KT M04/M05 A3016 RMK A01 T10371046  RH  094%=      5-min Rain = 0
KPD2 130654Z 00000KT M04/M04 A3015 RMK A01 T10351043  RH  094%=      5-min Rain = 0
KPD2 130655Z 00000KT M04/M04 A3015 RMK A01 T10351043  RH  094%=      5-min Rain = 0
KPD2 130656Z 24000KT M04/M04 A3015 RMK A01 T10351043  RH  094%=      5-min Rain = 0
KPD2 130657Z 00000KT M04/M04 A3015 RMK A01 T10351044  RH  094%=      5-min Rain = 0
KPD2 130658Z 26000KT M04/M04 A3015 RMK A01 T10351043  RH  094%=      5-min Rain = 0
KPD2 130659Z 26000KT M03/M04 A3015 RMK A01 T10341043  RH  094%=      5-min Rain = 0
KPD2 130700Z 26001KT M04/M05 A3015 RMK A01 T10361045  RH  093%=      5-min Rain = 0
KPD2 130701Z 26001KT M04/M05 A3015 RMK A01 T10361046  RH  093%=      5-min Rain = 0
KPD2 130702Z 26001KT M04/M05 A3015 RMK A01 T10361046  RH  093%=      5-min Rain = 0
KPD2 130703Z 26001KT M04/M05 A3015 RMK A01 T10361045  RH  094%=      5-min Rain = 0
KPD2 130704Z 26001KT M04/M04 A3015 RMK A01 T10351044  RH  094%=      5-min Rain = 0
KPD2 130705Z 26002KT M03/M04 A3016 RMK A01 T10341043  RH  094%=      5-min Rain = 0
KPD2 130706Z 26001KT M04/M04 A3016 RMK A01 T10351043  RH  094%=      5-min Rain = 0
KPD2 130707Z 00000KT M03/M04 A3016 RMK A01 T10341042  RH  094%=      5-min Rain = 0
KPD2 130708Z 00000KT M03/M04 A3016 RMK A01 T10331041  RH  094%=      5-min Rain = 0
KPD2 130709Z 00000KT M03/M04 A3016 RMK A01 T10321040  RH  094%=      5-min Rain = 0
KPD2 130710Z 26000KT M03/M04 A3016 RMK A01 T10311039  RH  094%=      5-min Rain = 0
KPD2 130711Z 26000KT M03/M04 A3016 RMK A01 T10331042  RH  094%=      5-min Rain = 0
KPD2 130712Z 32002KT M04/M05 A3016 RMK A01 T10371047  RH  093%=      5-min Rain = 0
KPD2 130713Z 31003KT M04/M05 A3016 RMK A01 T10391051  RH  092%=      5-min Rain = 0
KPD2 130714Z 31003KT M04/M05 A3016 RMK A01 T10401051  RH  092%=      5-min Rain = 0
KPD2 130715Z 30003KT M04/M05 A3016 RMK A01 T10421053  RH  092%=      5-min Rain = 0
KPD2 130716Z 30003KT M04/M06 A3016 RMK A01 T10441055  RH  092%=      5-min Rain = 0
KPD2 130717Z 30003KT M04/M05 A3016 RMK A01 T10441054  RH  092%=      5-min Rain = 0
KPD2 130718Z 29002KT M04/M06 A3016 RMK A01 T10441055  RH  092%=      5-min Rain = 0
KPD2 130719Z 30003KT M05/M06 A3016 RMK A01 T10451055  RH  092%=      5-min Rain = 0
KPD2 130720Z 31003KT M05/M06 A3016 RMK A01 T10451055  RH  093%=      5-min Rain = 0
KPD2 130721Z 31003KT M05/M06 A3016 RMK A01 T10451055  RH  093%=      5-min Rain = 0
KPD2 130722Z 32004KT M05/M05 A3016 RMK A01 T10451054  RH  093%=      5-min Rain = 0
KPD2 130723Z 33003KT M05/M05 A3016 RMK A01 T10451054  RH  093%=      5-min Rain = 0
KPD2 130724Z 32003KT M04/M05 A3016 RMK A01 T10441053  RH  093%=      5-min Rain = 0
KPD2 130725Z 32003KT M04/M05 A3016 RMK A01 T10431052  RH  094%=      5-min Rain = 0
KPD2 130726Z 33003KT M04/M05 A3016 RMK A01 T10411049  RH  094%=      5-min Rain = 0
KPD2 130727Z 31003KT M04/M05 A3016 RMK A01 T10391046  RH  095%=      5-min Rain = 0
KPD2 130728Z 32004KT M04/M04 A3016 RMK A01 T10371044  RH  095%=      5-min Rain = 0
KPD2 130729Z 32003KT M04/M04 A3016 RMK A01 T10351042  RH  095%=      5-min Rain = 0
KPD2 130730Z 30004KT M04/M04 A3016 RMK A01 T10351043  RH  095%=      5-min Rain = 0
KPD2 130731Z 31005KT M03/M04 A3016 RMK A01 T10341042  RH  094%=      5-min Rain = 0
KPD2 130732Z 32005KT M03/M04 A3016 RMK A01 T10331042  RH  094%=      5-min Rain = 0
KPD2 130733Z 32005KT M03/M04 A3016 RMK A01 T10311040  RH  094%=      5-min Rain = 0
KPD2 130734Z 33005KT M03/M04 A3016 RMK A01 T10301039  RH  094%=      5-min Rain = 0
KPD2 130735Z 33005KT M03/M04 A3016 RMK A01 T10281037  RH  093%=      5-min Rain = 0
KPD2 130736Z 33005KT M03/M04 A3016 RMK A01 T10251035  RH  093%=      5-min Rain = 0
KPD2 130737Z 33005KT M02/M03 A3015 RMK A01 T10231034  RH  092%=      5-min Rain = 0
KPD2 130738Z 33004KT M02/M03 A3015 RMK A01 T10211033  RH  092%=      5-min Rain = 0
KPD2 130739Z 34004KT M02/M03 A3015 RMK A01 T10201032  RH  091%=      5-min Rain = 0
KPD2 130740Z 35004KT M02/M03 A3015 RMK A01 T10171031  RH  090%=      5-min Rain = 0
KPD2 130741Z 33005KT M02/M03 A3015 RMK A01 T10161031  RH  089%=      5-min Rain = 0
KPD2 130742Z 34005KT M01/M03 A3015 RMK A01 T10131029  RH  089%=      5-min Rain = 0
KPD2 130743Z 35006KT M01/M03 A3015 RMK A01 T10101029  RH  087%=      5-min Rain = 0
KPD2 130744Z 34005KT M01/M03 A3015 RMK A01 T10081029  RH  086%=      5-min Rain = 0
KPD2 130745Z 35005KT M01/M03 A3015 RMK A01 T10081032  RH  084%=      5-min Rain = 0
KPD2 130746Z 32004KT M01/M03 A3015 RMK A01 T10081033  RH  083%=      5-min Rain = 0
KPD2 130747Z 33004KT M01/M03 A3015 RMK A01 T10071033  RH  083%=      5-min Rain = 0
KPD2 130748Z 33004KT M01/M03 A3015 RMK A01 T10061033  RH  082%=      5-min Rain = 0
KPD2 130749Z 33004KT M00/M03 A3015 RMK A01 T10041032  RH  082%=      5-min Rain = 0
KPD2 130750Z 33004KT M00/M03 A3015 RMK A01 T10021031  RH  081%=      5-min Rain = 0
KPD2 130751Z 32005KT 00/03 A3015 RMK A01 T00-00-31  RH  080%=      5-min Rain = 0
KPD2 130752Z 34005KT 00/03 A3015 RMK A01 T00000-32  RH  079%=      5-min Rain = 0
KPD2 130753Z 33005KT 00/M03 A3015 RMK A01 T00011033  RH  078%=      5-min Rain = 0
KPD2 130754Z 33005KT 00/M03 A3015 RMK A01 T00011033  RH  078%=      5-min Rain = 0
KPD2 130755Z 33005KT 00/M03 A3015 RMK A01 T00021034  RH  077%=      5-min Rain = 0
KPD2 130756Z 33006KT 00/M04 A3015 RMK A01 T00011035  RH  077%=      5-min Rain = 0
KPD2 130757Z 33006KT 00/M04 A3015 RMK A01 T00011035  RH  077%=      5-min Rain = 0
KPD2 130758Z 32005KT 00/M04 A3015 RMK A01 T00011035  RH  076%=      5-min Rain = 0
KPD2 130759Z 31004KT 00/M04 A3015 RMK A01 T00021036  RH  076%=      5-min Rain = 0
KPD2 130800Z 33006KT 00/M04 A3015 RMK A01 T00021036  RH  076%=      5-min Rain = 0
KPD2 130801Z 31008KT 00/M04 A3015 RMK A01 T00021036  RH  076%=      5-min Rain = 0
KPD2 130802Z 31006KT 00/M04 A3015 RMK A01 T00031036  RH  075%=      5-min Rain = 0
KPD2 130803Z 33005KT 00/M04 A3015 RMK A01 T00041036  RH  075%=      5-min Rain = 0
KPD2 130804Z 33005KT 00/M04 A3015 RMK A01 T00041036  RH  074%=      5-min Rain = 0
KPD2 130805Z 32006KT 01/M04 A3015 RMK A01 T00051036  RH  074%=      5-min Rain = 0
KPD2 130806Z 33007KT 01/M04 A3015 RMK A01 T00051036  RH  074%=      5-min Rain = 0
KPD2 130807Z 33006KT 01/M04 A3015 RMK A01 T00061035  RH  074%=      5-min Rain = 0
KPD2 130808Z 32007KT 01/M03 A3015 RMK A01 T00071034  RH  074%=      5-min Rain = 0
KPD2 130809Z 32006KT 01/M04 A3015 RMK A01 T00071036  RH  073%=      5-min Rain = 0
KPD2 130810Z 33007KT 01/M04 A3015 RMK A01 T00071037  RH  073%=      5-min Rain = 0
KPD2 130811Z 33006KT 01/M04 A3015 RMK A01 T00081035  RH  072%=      5-min Rain = 0
KPD2 130812Z 32007KT 01/M04 A3015 RMK A01 T00101035  RH  072%=      5-min Rain = 0
KPD2 130813Z 31007KT 01/M04 A3015 RMK A01 T00111036  RH  071%=      5-min Rain = 0
KPD2 130814Z 31008KT 01/M04 A3015 RMK A01 T00131036  RH  070%=      5-min Rain = 0
KPD2 130815Z 32007KT 01/M04 A3015 RMK A01 T00141036  RH  069%=      5-min Rain = 0
KPD2 130816Z 32007KT 01/M04 A3015 RMK A01 T00141037  RH  069%=      5-min Rain = 0
KPD2 130817Z 32007KT 02/M04 A3015 RMK A01 T00151037  RH  068%=      5-min Rain = 0
KPD2 130818Z 32007KT 02/M04 A3015 RMK A01 T00151038  RH  068%=      5-min Rain = 0
KPD2 130819Z 31007KT 02/M04 A3015 RMK A01 T00151037  RH  068%=      5-min Rain = 0
KPD2 130820Z 32007KT 02/M04 A3015 RMK A01 T00161038  RH  068%=      5-min Rain = 0
KPD2 130821Z 32008KT 02/M04 A3015 RMK A01 T00181038  RH  067%=      5-min Rain = 0
KPD2 130822Z 32007KT 02/M04 A3015 RMK A01 T00211037  RH  065%=      5-min Rain = 0
KPD2 130823Z 31006KT 02/M04 A3015 RMK A01 T00221038  RH  065%=      5-min Rain = 0
KPD2 130824Z 33009KT 02/M04 A3015 RMK A01 T00221038  RH  064%=      5-min Rain = 0
KPD2 130825Z 33009KT 02/M04 A3015 RMK A01 T00221038  RH  064%=      5-min Rain = 0
KPD2 130826Z 33007KT 02/M04 A3015 RMK A01 T00221038  RH  064%=      5-min Rain = 0
KPD2 130827Z 34007KT 02/M04 A3015 RMK A01 T00241038  RH  064%=      5-min Rain = 0
KPD2 130828Z 32009KT 03/M04 A3015 RMK A01 T00251038  RH  063%=      5-min Rain = 0
KPD2 130829Z 31006KT 03/M04 A3015 RMK A01 T00261038  RH  062%=      5-min Rain = 0
KPD2 130830Z 31006KT 03/M04 A3015 RMK A01 T00271038  RH  062%=      5-min Rain = 0
KPD2 130831Z 32007KT 03/M04 A3015 RMK A01 T00251039  RH  062%=      5-min Rain = 0
KPD2 130832Z 33006KT 02/M04 A3015 RMK A01 T00241040  RH  063%=      5-min Rain = 0
KPD2 130833Z 32007KT 03/M04 A3015 RMK A01 T00251039  RH  063%=      5-min Rain = 0
KPD2 130834Z 33006KT 03/M04 A3014 RMK A01 T00251039  RH  063%=      5-min Rain = 0
KPD2 130835Z 32007KT 03/M04 A3014 RMK A01 T00261039  RH  062%=      5-min Rain = 0
KPD2 130836Z 31005KT 03/M04 A3014 RMK A01 T00251040  RH  062%=      5-min Rain = 0
KPD2 130837Z 32006KT 02/M04 A3014 RMK A01 T00211042  RH  063%=      5-min Rain = 0
KPD2 130838Z 33005KT 02/M04 A3014 RMK A01 T00191043  RH  064%=      5-min Rain = 0
KPD2 130839Z 33005KT 02/M04 A3014 RMK A01 T00181042  RH  064%=      5-min Rain = 0
KPD2 130840Z 32007KT 02/M04 A3014 RMK A01 T00171042  RH  065%=      5-min Rain = 0
KPD2 130841Z 33007KT 02/M04 A3014 RMK A01 T00181040  RH  065%=      5-min Rain = 0
KPD2 130842Z 34007KT 02/M04 A3014 RMK A01 T00211040  RH  064%=      5-min Rain = 0
KPD2 130843Z 32005KT 02/M04 A3014 RMK A01 T00211040  RH  064%=      5-min Rain = 0
KPD2 130844Z 32005KT 02/M04 A3014 RMK A01 T00201041  RH  064%=      5-min Rain = 0
KPD2 130845Z 32005KT 02/M04 A3014 RMK A01 T00191042  RH  064%=      5-min Rain = 0
KPD2 130846Z 32004KT 02/M04 A3013 RMK A01 T00191041  RH  064%=      5-min Rain = 0
KPD2 130847Z 33004KT 02/M04 A3013 RMK A01 T00201041  RH  064%=      5-min Rain = 0
KPD2 130848Z 34004KT 02/M04 A3013 RMK A01 T00191042  RH  064%=      5-min Rain = 0
KPD2 130849Z 30005KT 02/M04 A3013 RMK A01 T00171043  RH  064%=      5-min Rain = 0
KPD2 130850Z 33005KT 02/M04 A3013 RMK A01 T00151043  RH  065%=      5-min Rain = 0
KPD2 130851Z 33004KT 01/M04 A3013 RMK A01 T00141044  RH  066%=      5-min Rain = 0
KPD2 130852Z 32005KT 01/M04 A3013 RMK A01 T00131044  RH  066%=      5-min Rain = 0
KPD2 130853Z 32006KT 01/M04 A3013 RMK A01 T00121043  RH  067%=      5-min Rain = 0
KPD2 130854Z 33007KT 01/M04 A3013 RMK A01 T00141042  RH  066%=      5-min Rain = 0
KPD2 130855Z 32005KT 02/M04 A3013 RMK A01 T00151042  RH  066%=      5-min Rain = 0
KPD2 130856Z 33005KT 02/M04 A3013 RMK A01 T00161042  RH  065%=      5-min Rain = 0
KPD2 130857Z 33005KT 02/M04 A3013 RMK A01 T00161042  RH  065%=      5-min Rain = 0
KPD2 130858Z 33005KT 02/M04 A3013 RMK A01 T00151043  RH  065%=      5-min Rain = 0
KPD2 130859Z 32005KT 02/M04 A3013 RMK A01 T00151044  RH  065%=      5-min Rain = 0
KPD2 130900Z 33004KT 01/M04 A3013 RMK A01 T00131044  RH  065%=      5-min Rain = 0
KPD2 130901Z 33004KT 01/M04 A3013 RMK A01 T00121044  RH  066%=      5-min Rain = 0
KPD2 130902Z 34005KT 01/M04 A3013 RMK A01 T00121044  RH  066%=      5-min Rain = 0
KPD2 130903Z 33006KT 01/M05 A3013 RMK A01 T00111045  RH  067%=      5-min Rain = 0
KPD2 130904Z 35005KT 01/M04 A3013 RMK A01 T00111043  RH  067%=      5-min Rain = 0
KPD2 130905Z 34006KT 01/M04 A3013 RMK A01 T00131042  RH  067%=      5-min Rain = 0
KPD2 130906Z 33006KT 01/M04 A3012 RMK A01 T00131043  RH  066%=      5-min Rain = 0
KPD2 130907Z 33005KT 01/M04 A3012 RMK A01 T00141042  RH  066%=      5-min Rain = 0
KPD2 130908Z 32005KT 02/M04 A3012 RMK A01 T00151042  RH  066%=      5-min Rain = 0
KPD2 130909Z 34005KT 02/M04 A3012 RMK A01 T00171041  RH  065%=      5-min Rain = 0
KPD2 130910Z 35005KT 02/M04 A3012 RMK A01 T00181042  RH  065%=      5-min Rain = 0
KPD2 130911Z 33008KT 02/M04 A3012 RMK A01 T00181042  RH  064%=      5-min Rain = 0
KPD2 130912Z 32008G13KT 02/M04 A3012 RMK A01 T00171043  RH  065%=      5-min Rain = 0
KPD2 130913Z 32007KT 02/M04 A3012 RMK A01 T00171042  RH  065%=      5-min Rain = 0
KPD2 130914Z 32006KT 02/M04 A3012 RMK A01 T00171042  RH  065%=      5-min Rain = 0
KPD2 130915Z 33006KT 02/M04 A3012 RMK A01 T00171042  RH  064%=      5-min Rain = 0
KPD2 130916Z 32006KT 02/M04 A3012 RMK A01 T00181042  RH  064%=      5-min Rain = 0
KPD2 130917Z 33006KT 02/M04 A3012 RMK A01 T00181042  RH  064%=      5-min Rain = 0
KPD2 130918Z 33007KT 02/M04 A3012 RMK A01 T00171043  RH  064%=      5-min Rain = 0
KPD2 130919Z 32006KT 02/M04 A3012 RMK A01 T00171043  RH  064%=      5-min Rain = 0
KPD2 130920Z 32006KT 02/M04 A3012 RMK A01 T00171043  RH  065%=      5-min Rain = 0
KPD2 130921Z 33006KT 02/M04 A3011 RMK A01 T00161043  RH  065%=      5-min Rain = 0
KPD2 130922Z 33006KT 02/M04 A3011 RMK A01 T00161043  RH  065%=      5-min Rain = 0
KPD2 130923Z 33006KT 02/M04 A3011 RMK A01 T00151044  RH  065%=      5-min Rain = 0
KPD2 130924Z 33006KT 02/M04 A3011 RMK A01 T00151044  RH  065%=      5-min Rain = 0
KPD2 130925Z 33004KT 01/M04 A3011 RMK A01 T00141044  RH  065%=      5-min Rain = 0
KPD2 130926Z 32005KT 01/M04 A3011 RMK A01 T00141044  RH  065%=      5-min Rain = 0
KPD2 130927Z 34005KT 01/M05 A3011 RMK A01 T00121045  RH  066%=      5-min Rain = 0
KPD2 130928Z 34005KT 01/M05 A3011 RMK A01 T00111045  RH  066%=      5-min Rain = 0
KPD2 130929Z 32005KT 01/M05 A3011 RMK A01 T00111045  RH  066%=      5-min Rain = 0
KPD2 130930Z 33006KT 01/M05 A3011 RMK A01 T00101045  RH  067%=      5-min Rain = 0
KPD2 130931Z 34004KT 01/M05 A3011 RMK A01 T00101045  RH  067%=      5-min Rain = 0
KPD2 130932Z 33004KT 01/M05 A3011 RMK A01 T00101045  RH  067%=      5-min Rain = 0
KPD2 130933Z 32004KT 01/M05 A3011 RMK A01 T00101045  RH  066%=      5-min Rain = 0
KPD2 130934Z 32005KT 01/M05 A3011 RMK A01 T00111045  RH  066%=      5-min Rain = 0
KPD2 130935Z 32005KT 01/M05 A301 RMK A01 T00111045  RH  066%=      5-min Rain = 0
KPD2 130936Z 32003KT 01/M05 A301 RMK A01 T00111045  RH  066%=      5-min Rain = 0
KPD2 130937Z 31005KT 01/M05 A301 RMK A01 T00121045  RH  066%=      5-min Rain = 0
KPD2 130938Z 31005KT 01/M05 A301 RMK A01 T00121046  RH  066%=      5-min Rain = 0
KPD2 130939Z 31005KT 01/M05 A301 RMK A01 T00121046  RH  066%=      5-min Rain = 0
KPD2 130940Z 31005KT 01/M05 A301 RMK A01 T00121046  RH  065%=      5-min Rain = 0
KPD2 130941Z 32004KT 01/M05 A301 RMK A01 T00121046  RH  065%=      5-min Rain = 0
KPD2 130942Z 31004KT 01/M05 A301 RMK A01 T00111046  RH  065%=      5-min Rain = 0
KPD2 130943Z 31004KT 01/M05 A301 RMK A01 T00111046  RH  066%=      5-min Rain = 0
KPD2 130944Z 32004KT 01/M05 A301 RMK A01 T00101047  RH  066%=      5-min Rain = 0
KPD2 130945Z 34003KT 01/M05 A301 RMK A01 T00091047  RH  066%=      5-min Rain = 0
KPD2 130946Z 35004KT 01/M05 A301 RMK A01 T00091047  RH  066%=      5-min Rain = 0
KPD2 130947Z 35004KT 01/M05 A301 RMK A01 T00071048  RH  066%=      5-min Rain = 0
KPD2 130948Z 35004KT 01/M05 A3009 RMK A01 T00051049  RH  067%=      5-min Rain = 0
KPD2 130949Z 34005KT 01/M05 A3009 RMK A01 T00051049  RH  067%=      5-min Rain = 0
KPD2 130950Z 34005KT 00/M05 A3009 RMK A01 T00031049  RH  068%=      5-min Rain = 0
KPD2 130951Z 34005KT 00/M05 A3009 RMK A01 T00031049  RH  068%=      5-min Rain = 0
KPD2 130952Z 34005KT 00/M05 A3009 RMK A01 T00041048  RH  068%=      5-min Rain = 0
KPD2 130953Z 34005KT 00/M05 A3009 RMK A01 T00031048  RH  069%=      5-min Rain = 0
KPD2 130954Z 33005KT 00/M05 A3009 RMK A01 T00031048  RH  069%=      5-min Rain = 0
KPD2 130955Z 32006KT 00/M05 A3009 RMK A01 T00031048  RH  069%=      5-min Rain = 0
KPD2 130956Z 32006KT 00/M05 A3009 RMK A01 T00021048  RH  069%=      5-min Rain = 0
KPD2 130957Z 33006KT 00/M05 A3009 RMK A01 T00031047  RH  069%=      5-min Rain = 0
KPD2 130958Z 32007KT 00/M05 A3009 RMK A01 T00031047  RH  069%=      5-min Rain = 0
KPD2 130959Z 33006KT 00/M05 A3009 RMK A01 T00031047  RH  069%=      5-min Rain = 0
KPD2 131000Z 32006KT 00/M05 A3009 RMK A01 T00021048  RH  069%=      5-min Rain = 0
KPD2 131001Z 33005KT 00/M05 A3009 RMK A01 T00021048  RH  069%=      5-min Rain = 0
KPD2 131002Z 33006KT 00/M05 A3009 RMK A01 T00011048  RH  069%=      5-min Rain = 0
KPD2 131003Z 33006KT 00/05 A3009 RMK A01 T00-00-49  RH  070%=      5-min Rain = 0
KPD2 131004Z 33005KT M00/M05 A3009 RMK A01 T10011048  RH  070%=      5-min Rain = 0
KPD2 131005Z 33006KT M00/M05 A3009 RMK A01 T10011048  RH  070%=      5-min Rain = 0
KPD2 131006Z 32006KT M00/M05 A3009 RMK A01 T10021048  RH  071%=      5-min Rain = 0
KPD2 131007Z 33006KT M00/M05 A3009 RMK A01 T10021048  RH  071%=      5-min Rain = 0
KPD2 131008Z 32006KT M00/M05 A3009 RMK A01 T10031049  RH  071%=      5-min Rain = 0
KPD2 131009Z 32005KT M00/M05 A3009 RMK A01 T10041049  RH  071%=      5-min Rain = 0
KPD2 131010Z 32005KT M00/M05 A3009 RMK A01 T10041049  RH  072%=      5-min Rain = 0
KPD2 131011Z 33005KT M01/M05 A3009 RMK A01 T10051050  RH  072%=      5-min Rain = 0
KPD2 131012Z 33005KT M01/M05 A3009 RMK A01 T10061050  RH  072%=      5-min Rain = 0
KPD2 131013Z 33005KT M01/M05 A3009 RMK A01 T10071050  RH  073%=      5-min Rain = 0
KPD2 131014Z 33005KT M01/M05 A3009 RMK A01 T10081050  RH  073%=      5-min Rain = 0
KPD2 131015Z 33005KT M01/M05 A3009 RMK A01 T10081050  RH  073%=      5-min Rain = 0
KPD2 131016Z 33006KT M01/M05 A3009 RMK A01 T10091050  RH  074%=      5-min Rain = 0
KPD2 131017Z 33006KT M01/M05 A3009 RMK A01 T10091050  RH  074%=      5-min Rain = 0
KPD2 131018Z 33006KT M01/M05 A3009 RMK A01 T10101050  RH  074%=      5-min Rain = 0
KPD2 131019Z 33006KT M01/M05 A3009 RMK A01 T10101049  RH  074%=      5-min Rain = 0
KPD2 131020Z 33005KT M01/M05 A3009 RMK A01 T10101049  RH  074%=      5-min Rain = 0
KPD2 131021Z 32005KT M01/M05 A3009 RMK A01 T10101050  RH  075%=      5-min Rain = 0
KPD2 131022Z 32005KT M01/M05 A3009 RMK A01 T10111050  RH  075%=      5-min Rain = 0
KPD2 131023Z 32006KT M01/M05 A3009 RMK A01 T10121050  RH  075%=      5-min Rain = 0
KPD2 131024Z 32005KT M01/M05 A3009 RMK A01 T10121050  RH  075%=      5-min Rain = 0
KPD2 131025Z 32006KT M01/M05 A3009 RMK A01 T10121050  RH  075%=      5-min Rain = 0
KPD2 131026Z 32006KT M01/M05 A3009 RMK A01 T10121050  RH  076%=      5-min Rain = 0
KPD2 131027Z 33005KT M01/M05 A3009 RMK A01 T10121050  RH  076%=      5-min Rain = 0
KPD2 131028Z 32006KT M01/M05 A3009 RMK A01 T10121050  RH  076%=      5-min Rain = 0
KPD2 131029Z 33005KT M01/M05 A3009 RMK A01 T10131050  RH  076%=      5-min Rain = 0
KPD2 131030Z 32005KT M01/M05 A3009 RMK A01 T10131050  RH  076%=      5-min Rain = 0
KPD2 131031Z 32005KT M01/M05 A3008 RMK A01 T10131050  RH  076%=      5-min Rain = 0
KPD2 131032Z 32004KT M01/M05 A3008 RMK A01 T10141050  RH  076%=      5-min Rain = 0
KPD2 131033Z 33004KT M01/M05 A3008 RMK A01 T10141051  RH  076%=      5-min Rain = 0
KPD2 131034Z 32005KT M02/M05 A3008 RMK A01 T10151051  RH  076%=      5-min Rain = 0
KPD2 131035Z 33005KT M02/M05 A3008 RMK A01 T10151051  RH  077%=      5-min Rain = 0
KPD2 131036Z 32005KT M02/M05 A3008 RMK A01 T10151051  RH  077%=      5-min Rain = 0
KPD2 131037Z 33005KT M02/M05 A3008 RMK A01 T10161051  RH  077%=      5-min Rain = 0
KPD2 131038Z 33005KT M02/M05 A3008 RMK A01 T10161051  RH  077%=      5-min Rain = 0
KPD2 131039Z 33005KT M02/M05 A3008 RMK A01 T10161051  RH  077%=      5-min Rain = 0
KPD2 131040Z 33005KT M02/M05 A3008 RMK A01 T10161051  RH  077%=      5-min Rain = 0
KPD2 131041Z 33005KT M02/M05 A3008 RMK A01 T10161050  RH  077%=      5-min Rain = 0
KPD2 131042Z 33004KT M02/M05 A3008 RMK A01 T10151050  RH  077%=      5-min Rain = 0
KPD2 131043Z 32005KT M02/M05 A3008 RMK A01 T10151050  RH  077%=      5-min Rain = 0
KPD2 131044Z 32005KT M02/M05 A3008 RMK A01 T10151050  RH  077%=      5-min Rain = 0
KPD2 131045Z 32005KT M02/M05 A3008 RMK A01 T10151050  RH  077%=      5-min Rain = 0
KPD2 131046Z 32004KT M02/M05 A3008 RMK A01 T10151050  RH  077%=      5-min Rain = 0
KPD2 131047Z 32005KT M02/M05 A3008 RMK A01 T10151050  RH  077%=      5-min Rain = 0
KPD2 131048Z 33004KT M02/M05 A3008 RMK A01 T10151050  RH  077%=      5-min Rain = 0
KPD2 131049Z 32004KT M02/M05 A3008 RMK A01 T10151051  RH  077%=      5-min Rain = 0
KPD2 131050Z 32003KT M02/M05 A3008 RMK A01 T10151051  RH  077%=      5-min Rain = 0
KPD2 131051Z 33003KT M02/M05 A3008 RMK A01 T10151051  RH  077%=      5-min Rain = 0
KPD2 131052Z 33003KT M02/M05 A3008 RMK A01 T10151051  RH  077%=      5-min Rain = 0
KPD2 131053Z 34003KT M02/M05 A3008 RMK A01 T10161052  RH  077%=      5-min Rain = 0
KPD2 131054Z 33003KT M02/M05 A3008 RMK A01 T10161052  RH  077%=      5-min Rain = 0
KPD2 131055Z 33004KT M02/M05 A3008 RMK A01 T10171052  RH  077%=      5-min Rain = 0
KPD2 131056Z 32003KT M02/M05 A3008 RMK A01 T10171052  RH  077%=      5-min Rain = 0
KPD2 131057Z 33003KT M02/M05 A3008 RMK A01 T10181052  RH  077%=      5-min Rain = 0
KPD2 131058Z 34003KT M02/M05 A3008 RMK A01 T10181052  RH  077%=      5-min Rain = 0
KPD2 131059Z 34002KT M02/M05 A3007 RMK A01 T10181052  RH  077%=      5-min Rain = 0
KPD2 131100Z 35003KT M02/M05 A3007 RMK A01 T10181052  RH  078%=      5-min Rain = 0
KPD2 131101Z 35004KT M02/M05 A3007 RMK A01 T10181052  RH  078%=      5-min Rain = 0
KPD2 131102Z 35004KT M02/M05 A3007 RMK A01 T10181052  RH  078%=      5-min Rain = 0
KPD2 131103Z 36003KT M02/M05 A3007 RMK A01 T10181052  RH  078%=      5-min Rain = 0
KPD2 131104Z 34003KT M02/M05 A3007 RMK A01 T10191053  RH  078%=      5-min Rain = 0
KPD2 131105Z 35003KT M02/M06 A3007 RMK A01 T10211055  RH  077%=      5-min Rain = 0
KPD2 131106Z 34003KT M02/M06 A3007 RMK A01 T10221056  RH  077%=      5-min Rain = 0
KPD2 131107Z 35002KT M02/M06 A3007 RMK A01 T10231056  RH  078%=      5-min Rain = 0
KPD2 131108Z 35003KT M02/M06 A3007 RMK A01 T10241057  RH  078%=      5-min Rain = 0
KPD2 131109Z 34003KT M03/M06 A3007 RMK A01 T10251057  RH  078%=      5-min Rain = 0
KPD2 131110Z 33003KT M02/M06 A3007 RMK A01 T10241055  RH  079%=      5-min Rain = 0
KPD2 131111Z 35003KT M02/M05 A3007 RMK A01 T10241054  RH  080%=      5-min Rain = 0
KPD2 131112Z 33004KT M02/M05 A3007 RMK A01 T10231054  RH  079%=      5-min Rain = 0
KPD2 131113Z 34004KT M02/M06 A3007 RMK A01 T10241055  RH  079%=      5-min Rain = 0
KPD2 131114Z 34004KT M02/M05 A3007 RMK A01 T10231054  RH  079%=      5-min Rain = 0
KPD2 131115Z 34003KT M02/M05 A3007 RMK A01 T10221053  RH  079%=      5-min Rain = 0
KPD2 131116Z 34005KT M02/M05 A3007 RMK A01 T10221054  RH  079%=      5-min Rain = 0
KPD2 131117Z 35004KT M02/M06 A3007 RMK A01 T10231056  RH  078%=      5-min Rain = 0
KPD2 131118Z 33004KT M02/M06 A3007 RMK A01 T10231055  RH  079%=      5-min Rain = 0
KPD2 131119Z 33004KT M02/M06 A3007 RMK A01 T10231055  RH  079%=      5-min Rain = 0
KPD2 131120Z 33004KT M02/M05 A3007 RMK A01 T10221054  RH  079%=      5-min Rain = 0
KPD2 131121Z 32003KT M02/M06 A3007 RMK A01 T10231055  RH  078%=      5-min Rain = 0
KPD2 131122Z 31004KT M02/M06 A3007 RMK A01 T10231055  RH  079%=      5-min Rain = 0
KPD2 131123Z 33004KT M02/M05 A3007 RMK A01 T10221054  RH  079%=      5-min Rain = 0
KPD2 131124Z 33003KT M02/M05 A3007 RMK A01 T10221053  RH  079%=      5-min Rain = 0
KPD2 131125Z 33003KT M02/M05 A3007 RMK A01 T10221054  RH  079%=      5-min Rain = 0
KPD2 131126Z 33004KT M02/M05 A3007 RMK A01 T10221053  RH  079%=      5-min Rain = 0
KPD2 131127Z 33003KT M02/M05 A3007 RMK A01 T10221054  RH  079%=      5-min Rain = 0
KPD2 131128Z 34004KT M02/M05 A3006 RMK A01 T10211053  RH  079%=      5-min Rain = 0
KPD2 131129Z 33004KT M02/M05 A3007 RMK A01 T10211053  RH  079%=      5-min Rain = 0
KPD2 131130Z 33004KT M02/M05 A3007 RMK A01 T10211054  RH  078%=      5-min Rain = 0
KPD2 131131Z 33005KT M02/M05 A3007 RMK A01 T10211054  RH  078%=      5-min Rain = 0
KPD2 131132Z 33005KT M02/M05 A3007 RMK A01 T10211054  RH  078%=      5-min Rain = 0
KPD2 131133Z 33005KT M02/M06 A3007 RMK A01 T10221055  RH  078%=      5-min Rain = 0
KPD2 131134Z 33004KT M02/M06 A3006 RMK A01 T10231055  RH  078%=      5-min Rain = 0
KPD2 131135Z 33004KT M02/M06 A3006 RMK A01 T10231055  RH  079%=      5-min Rain = 0
KPD2 131136Z 32002KT M02/M06 A3006 RMK A01 T10231055  RH  079%=      5-min Rain = 0
KPD2 131137Z 32002KT M02/M06 A3007 RMK A01 T10231055  RH  079%=      5-min Rain = 0
KPD2 131138Z 33003KT M02/M06 A3007 RMK A01 T10231055  RH  079%=      5-min Rain = 0
KPD2 131139Z 34004KT M02/M05 A3007 RMK A01 T10231054  RH  079%=      5-min Rain = 0
KPD2 131140Z 33004KT M02/M06 A3007 RMK A01 T10221055  RH  079%=      5-min Rain = 0
KPD2 131141Z 33004KT M02/M06 A3007 RMK A01 T10231055  RH  078%=      5-min Rain = 0
KPD2 131142Z 34004KT M02/M06 A3007 RMK A01 T10231055  RH  078%=      5-min Rain = 0
KPD2 131143Z 32004KT M02/M06 A3007 RMK A01 T10231056  RH  078%=      5-min Rain = 0
KPD2 131144Z 34004KT M02/M06 A3007 RMK A01 T10241056  RH  078%=      5-min Rain = 0
KPD2 131145Z 35004KT M02/M06 A3007 RMK A01 T10241056  RH  078%=      5-min Rain = 0
KPD2 131146Z 35004KT M02/M06 A3007 RMK A01 T10241056  RH  079%=      5-min Rain = 0
KPD2 131147Z 35003KT M03/M06 A3007 RMK A01 T10251056  RH  079%=      5-min Rain = 0
KPD2 131148Z 00003KT M03/M06 A3007 RMK A01 T10251056  RH  079%=      5-min Rain = 0
KPD2 131149Z 36003KT M03/M06 A3006 RMK A01 T10261057  RH  079%=      5-min Rain = 0
KPD2 131150Z 35002KT M03/M06 A3006 RMK A01 T10271058  RH  079%=      5-min Rain = 0
KPD2 131151Z 00004KT M03/M06 A3006 RMK A01 T10271057  RH  080%=      5-min Rain = 0
KPD2 131152Z 35005KT M03/M06 A3007 RMK A01 T10271057  RH  080%=      5-min Rain = 0
KPD2 131153Z 34005KT M03/M06 A3007 RMK A01 T10271056  RH  080%=      5-min Rain = 0
KPD2 131154Z 35004KT M03/M06 A3007 RMK A01 T10271056  RH  081%=      5-min Rain = 0
KPD2 131155Z 35004KT M03/M06 A3007 RMK A01 T10271056  RH  081%=      5-min Rain = 0
KPD2 131156Z 34004KT M03/M06 A3006 RMK A01 T10281056  RH  081%=      5-min Rain = 0
KPD2 131157Z 35004KT M03/M06 A3006 RMK A01 T10281056  RH  081%=      5-min Rain = 0
KPD2 131158Z 35004KT M03/M06 A3006 RMK A01 T10271055  RH  081%=      5-min Rain = 0
KPD2 131159Z 35004KT M03/M06 A3006 RMK A01 T10271055  RH  081%=      5-min Rain = 0
KPD2 131200Z 35004KT M03/M06 A3006 RMK A01 T10261055  RH  081%=      5-min Rain = 0
KPD2 131201Z 34005KT M03/M06 A3006 RMK A01 T10261056  RH  080%=      5-min Rain = 0
KPD2 131202Z 35004KT M03/M06 A3006 RMK A01 T10261056  RH  080%=      5-min Rain = 0
KPD2 131203Z 34004KT M03/M06 A3006 RMK A01 T10261056  RH  080%=      5-min Rain = 0
KPD2 131204Z 34004KT M03/M06 A3006 RMK A01 T10261056  RH  080%=      5-min Rain = 0
KPD2 131205Z 33005KT M03/M06 A3006 RMK A01 T10261056  RH  080%=      5-min Rain = 0
KPD2 131206Z 33004KT M03/M06 A3007 RMK A01 T10271056  RH  080%=      5-min Rain = 0
KPD2 131207Z 32004KT M03/M06 A3006 RMK A01 T10261056  RH  080%=      5-min Rain = 0
KPD2 131208Z 32003KT M03/M06 A3006 RMK A01 T10261056  RH  080%=      5-min Rain = 0
KPD2 131209Z 32003KT M03/M06 A3006 RMK A01 T10271057  RH  080%=      5-min Rain = 0
KPD2 131210Z 32003KT M03/M06 A3006 RMK A01 T10281058  RH  080%=      5-min Rain = 0
KPD2 131211Z 32003KT M03/M06 A3006 RMK A01 T10281058  RH  080%=      5-min Rain = 0
KPD2 131212Z 31003KT M03/M06 A3006 RMK A01 T10291058  RH  080%=      5-min Rain = 0
KPD2 131213Z 32004KT M03/M06 A3007 RMK A01 T10291059  RH  080%=      5-min Rain = 0
KPD2 131214Z 32004KT M03/M06 A3007 RMK A01 T10291059  RH  080%=      5-min Rain = 0
KPD2 131215Z 32003KT M03/M06 A3007 RMK A01 T10281057  RH  081%=      5-min Rain = 0
KPD2 131216Z 32004KT M03/M06 A3007 RMK A01 T10281057  RH  081%=      5-min Rain = 0
KPD2 131217Z 33004KT M03/M06 A3007 RMK A01 T10281058  RH  080%=      5-min Rain = 0
KPD2 131218Z 33004KT M03/M06 A3007 RMK A01 T10301060  RH  080%=      5-min Rain = 0
KPD2 131219Z 33005KT M03/M06 A3007 RMK A01 T10311061  RH  080%=      5-min Rain = 0
KPD2 131220Z 32005KT M03/M06 A3007 RMK A01 T10321061  RH  080%=      5-min Rain = 0
KPD2 131221Z 33005KT M03/M06 A3007 RMK A01 T10331061  RH  081%=      5-min Rain = 0
KPD2 131222Z 33004KT M03/M06 A3007 RMK A01 T10331061  RH  081%=      5-min Rain = 0
KPD2 131223Z 32005KT M03/M06 A3007 RMK A01 T10341062  RH  081%=      5-min Rain = 0
KPD2 131224Z 32005KT M04/M06 A3007 RMK A01 T10351062  RH  082%=      5-min Rain = 0
KPD2 131225Z 31006KT M04/M06 A3007 RMK A01 T10361062  RH  082%=      5-min Rain = 0
KPD2 131226Z 32006KT M04/M06 A3007 RMK A01 T10361062  RH  082%=      5-min Rain = 0
KPD2 131227Z 32006KT M04/M06 A3007 RMK A01 T10371063  RH  082%=      5-min Rain = 0
KPD2 131228Z 31005KT M04/M06 A3007 RMK A01 T10371063  RH  083%=      5-min Rain = 0
KPD2 131229Z 31006KT M04/M06 A3007 RMK A01 T10381063  RH  083%=      5-min Rain = 0
KPD2 131230Z 31006KT M04/M06 A3007 RMK A01 T10381063  RH  083%=      5-min Rain = 0
KPD2 131231Z 31006KT M04/M06 A3008 RMK A01 T10391063  RH  083%=      5-min Rain = 0
KPD2 131232Z 30006KT M04/M06 A3008 RMK A01 T10381062  RH  083%=      5-min Rain = 0
KPD2 131233Z 30006KT M04/M06 A3008 RMK A01 T10391062  RH  083%=      5-min Rain = 0
KPD2 131234Z 30004KT M04/M06 A3008 RMK A01 T10391063  RH  083%=      5-min Rain = 0
KPD2 131235Z 30005KT M04/M06 A3008 RMK A01 T10391063  RH  084%=      5-min Rain = 0
KPD2 131236Z 30005KT M04/M06 A3008 RMK A01 T10391063  RH  084%=      5-min Rain = 0
KPD2 131237Z 30005KT M04/M06 A3008 RMK A01 T10391063  RH  084%=      5-min Rain = 0
KPD2 131238Z 30005KT M04/M06 A3008 RMK A01 T10391063  RH  084%=      5-min Rain = 0
KPD2 131239Z 30005KT M04/M06 A3008 RMK A01 T10391063  RH  084%=      5-min Rain = 0
KPD2 131240Z 30005KT M04/M06 A3008 RMK A01 T10391063  RH  084%=      5-min Rain = 0
KPD2 131241Z 31004KT M04/M06 A3008 RMK A01 T10391063  RH  084%=      5-min Rain = 0
KPD2 131242Z 31004KT M04/M06 A3008 RMK A01 T10391063  RH  084%=      5-min Rain = 0
KPD2 131243Z 31004KT M04/M06 A3008 RMK A01 T10391063  RH  084%=      5-min Rain = 0
KPD2 131244Z 31004KT M04/M06 A3008 RMK A01 T10391063  RH  084%=      5-min Rain = 0
KPD2 131245Z 31004KT M04/M06 A3007 RMK A01 T10391063  RH  083%=      5-min Rain = 0
KPD2 131246Z 31004KT M04/M06 A3007 RMK A01 T10391063  RH  084%=      5-min Rain = 0
KPD2 131247Z 31004KT M04/M06 A3008 RMK A01 T10391063  RH  084%=      5-min Rain = 0
KPD2 131248Z 31004KT M04/M06 A3008 RMK A01 T10391063  RH  084%=      5-min Rain = 0
KPD2 131249Z 32004KT M04/M06 A3008 RMK A01 T10391063  RH  084%=      5-min Rain = 0
KPD2 131250Z 33003KT M04/M06 A3008 RMK A01 T10391063  RH  084%=      5-min Rain = 0
KPD2 131251Z 32003KT M04/M06 A3007 RMK A01 T10391063  RH  084%=      5-min Rain = 0
KPD2 131252Z 33003KT M04/M06 A3007 RMK A01 T10401063  RH  084%=      5-min Rain = 0
KPD2 131253Z 33004KT M04/M06 A3007 RMK A01 T10401063  RH  084%=      5-min Rain = 0
KPD2 131254Z 34004KT M04/M06 A3007 RMK A01 T10401063  RH  084%=      5-min Rain = 0
KPD2 131255Z 34004KT M04/M06 A3007 RMK A01 T10391063  RH  084%=      5-min Rain = 0
KPD2 131256Z 34005KT M04/M06 A3007 RMK A01 T10391063  RH  084%=      5-min Rain = 0
KPD2 131257Z 35005KT M04/M06 A3007 RMK A01 T10401063  RH  084%=      5-min Rain = 0
KPD2 131258Z 34005KT M04/M06 A3007 RMK A01 T10391062  RH  084%=      5-min Rain = 0
KPD2 131259Z 35004KT M04/M06 A3007 RMK A01 T10381061  RH  084%=      5-min Rain = 0
KPD2 131300Z 35006KT M04/M06 A3007 RMK A01 T10371060  RH  084%=      5-min Rain = 0
KPD2 131301Z 35005KT M04/M06 A3007 RMK A01 T10371060  RH  084%=      5-min Rain = 0
KPD2 131302Z 34004KT M04/M06 A3007 RMK A01 T10351059  RH  084%=      5-min Rain = 0
KPD2 131303Z 33004KT M03/M06 A3007 RMK A01 T10341059  RH  083%=      5-min Rain = 0
KPD2 131304Z 33004KT M03/M06 A3007 RMK A01 T10341060  RH  082%=      5-min Rain = 0
KPD2 131305Z 34004KT M03/M06 A3007 RMK A01 T10341060  RH  082%=      5-min Rain = 0
KPD2 131306Z 34005KT M03/M06 A3007 RMK A01 T10341061  RH  082%=      5-min Rain = 0
KPD2 131307Z 33005KT M03/M06 A3007 RMK A01 T10331060  RH  082%=      5-min Rain = 0
KPD2 131308Z 33004KT M03/M06 A3007 RMK A01 T10331060  RH  082%=      5-min Rain = 0
KPD2 131309Z 34004KT M03/M06 A3007 RMK A01 T10321060  RH  081%=      5-min Rain = 0
KPD2 131310Z 33004KT M03/M06 A3007 RMK A01 T10321060  RH  081%=      5-min Rain = 0
KPD2 131311Z 32004KT M03/M06 A3007 RMK A01 T10321061  RH  081%=      5-min Rain = 0
KPD2 131312Z 32003KT M03/M06 A3007 RMK A01 T10321061  RH  081%=      5-min Rain = 0
KPD2 131313Z 31005KT M03/M06 A3007 RMK A01 T10331062  RH  080%=      5-min Rain = 0
KPD2 131314Z 30004KT M03/M06 A3007 RMK A01 T10331062  RH  080%=      5-min Rain = 0
KPD2 131315Z 30005KT M03/M06 A3007 RMK A01 T10331062  RH  080%=      5-min Rain = 0
KPD2 131316Z 30005KT M03/M06 A3007 RMK A01 T10331062  RH  080%=      5-min Rain = 0
KPD2 131317Z 30005KT M03/M06 A3007 RMK A01 T10341063  RH  080%=      5-min Rain = 0
KPD2 131318Z 30005KT M03/M06 A3007 RMK A01 T10341063  RH  080%=      5-min Rain = 0
KPD2 131319Z 30006KT M04/M06 A3007 RMK A01 T10351064  RH  080%=      5-min Rain = 0
KPD2 131320Z 31005KT M04/M06 A3007 RMK A01 T10361064  RH  080%=      5-min Rain = 0
KPD2 131321Z 32004KT M04/M07 A3007 RMK A01 T10361065  RH  081%=      5-min Rain = 0
KPD2 131322Z 33004KT M04/M07 A3006 RMK A01 T10361065  RH  081%=      5-min Rain = 0
KPD2 131323Z 32004KT M04/M07 A3006 RMK A01 T10371065  RH  081%=      5-min Rain = 0
KPD2 131324Z 32004KT M04/M07 A3006 RMK A01 T10371065  RH  081%=      5-min Rain = 0
KPD2 131325Z 33004KT M04/M06 A3006 RMK A01 T10371064  RH  082%=      5-min Rain = 0
KPD2 131326Z 33003KT M04/M06 A3006 RMK A01 T10371064  RH  082%=      5-min Rain = 0
KPD2 131327Z 33003KT M04/M06 A3006 RMK A01 T10371064  RH  082%=      5-min Rain = 0
KPD2 131328Z 33003KT M04/M06 A3006 RMK A01 T10371064  RH  082%=      5-min Rain = 0
KPD2 131329Z 33003KT M04/M06 A3006 RMK A01 T10371064  RH  082%=      5-min Rain = 0
KPD2 131330Z 32003KT M04/M06 A3005 RMK A01 T10371064  RH  082%=      5-min Rain = 0
KPD2 131331Z 32003KT M04/M06 A3005 RMK A01 T10371064  RH  082%=      5-min Rain = 0
KPD2 131332Z 32002KT M04/M06 A3005 RMK A01 T10371064  RH  082%=      5-min Rain = 0
KPD2 131333Z 32003KT M04/M06 A3005 RMK A01 T10371064  RH  081%=      5-min Rain = 0
KPD2 131334Z 32003KT M04/M06 A3005 RMK A01 T10371064  RH  081%=      5-min Rain = 0
KPD2 131335Z 32002KT M04/M06 A3005 RMK A01 T10371064  RH  081%=      5-min Rain = 0
KPD2 131336Z 33002KT M04/M07 A3005 RMK A01 T10371065  RH  081%=      5-min Rain = 0
KPD2 131337Z 33002KT M04/M07 A3005 RMK A01 T10371065  RH  081%=      5-min Rain = 0
KPD2 131338Z 34002KT M04/M07 A3005 RMK A01 T10381065  RH  081%=      5-min Rain = 0
KPD2 131339Z 34002KT M04/M07 A3005 RMK A01 T10371065  RH  081%=      5-min Rain = 0
KPD2 131340Z 34002KT M04/M07 A3005 RMK A01 T10381065  RH  081%=      5-min Rain = 0
KPD2 131341Z 33002KT M04/M07 A3005 RMK A01 T10381066  RH  082%=      5-min Rain = 0
KPD2 131342Z 33002KT M04/M07 A3005 RMK A01 T10391065  RH  082%=      5-min Rain = 0
KPD2 131343Z 34002KT M04/M07 A3005 RMK A01 T10391066  RH  082%=      5-min Rain = 0
KPD2 131344Z 33001KT M04/M07 A3005 RMK A01 T10391066  RH  082%=      5-min Rain = 0
KPD2 131345Z 33001KT M04/M07 A3005 RMK A01 T10401066  RH  082%=      5-min Rain = 0
KPD2 131346Z 34001KT M04/M07 A3005 RMK A01 T10401066  RH  082%=      5-min Rain = 0
KPD2 131347Z 34000KT M04/M07 A3005 RMK A01 T10401066  RH  082%=      5-min Rain = 0
KPD2 131348Z 34001KT M04/M07 A3004 RMK A01 T10401067  RH  082%=      5-min Rain = 0
KPD2 131349Z 34002KT M04/M07 A3004 RMK A01 T10401066  RH  082%=      5-min Rain = 0
KPD2 131350Z 34002KT M04/M07 A3004 RMK A01 T10401065  RH  083%=      5-min Rain = 0
KPD2 131351Z 34002KT M04/M07 A3004 RMK A01 T10401065  RH  083%=      5-min Rain = 0
KPD2 131352Z 35003KT M04/M07 A3005 RMK A01 T10401065  RH  083%=      5-min Rain = 0
KPD2 131353Z 35003KT M04/M07 A3005 RMK A01 T10401066  RH  082%=      5-min Rain = 0
KPD2 131354Z 34002KT M04/M07 A3005 RMK A01 T10421069  RH  082%=      5-min Rain = 0
KPD2 131355Z 28002KT M04/M07 A3005 RMK A01 T10441071  RH  082%=      5-min Rain = 0
KPD2 131356Z 27004KT M05/M07 A3005 RMK A01 T10451070  RH  083%=      5-min Rain = 0
KPD2 131357Z 27004KT M05/M07 A3005 RMK A01 T10451069  RH  083%=      5-min Rain = 0
KPD2 131358Z 27003KT M05/M07 A3005 RMK A01 T10451069  RH  084%=      5-min Rain = 0
KPD2 131359Z 27003KT M05/M07 A3005 RMK A01 T10451068  RH  084%=      5-min Rain = 0
KPD2 131400Z 27003KT M05/M07 A3005 RMK A01 T10451068  RH  084%=      5-min Rain = 0
KPD2 131401Z 26002KT M05/M07 A3005 RMK A01 T10461069  RH  084%=      5-min Rain = 0
KPD2 131402Z 26001KT M05/M07 A3005 RMK A01 T10461069  RH  084%=      5-min Rain = 0
KPD2 131403Z 26002KT M05/M07 A3005 RMK A01 T10471069  RH  084%=      5-min Rain = 0
KPD2 131404Z 26002KT M05/M07 A3005 RMK A01 T10461069  RH  084%=      5-min Rain = 0
KPD2 131405Z 26002KT M05/M07 A3004 RMK A01 T10471070  RH  084%=      5-min Rain = 0
KPD2 131406Z 26002KT M05/M07 A3004 RMK A01 T10471070  RH  084%=      5-min Rain = 0
KPD2 131407Z 27002KT M05/M07 A3004 RMK A01 T10471070  RH  084%=      5-min Rain = 0
KPD2 131408Z 27001KT M05/M07 A3004 RMK A01 T10481070  RH  084%=      5-min Rain = 0
KPD2 131409Z 27001KT M05/M07 A3004 RMK A01 T10481070  RH  085%=      5-min Rain = 0
KPD2 131410Z 27001KT M05/M07 A3004 RMK A01 T10481070  RH  085%=      5-min Rain = 0
KPD2 131411Z 00000KT M05/M07 A3004 RMK A01 T10481069  RH  085%=      5-min Rain = 0
KPD2 131412Z 00000KT M05/M07 A3004 RMK A01 T10471068  RH  085%=      5-min Rain = 0
KPD2 131413Z 00000KT M05/M07 A3004 RMK A01 T10461068  RH  085%=      5-min Rain = 0
KPD2 131414Z 00000KT M05/M07 A3004 RMK A01 T10461068  RH  085%=      5-min Rain = 0
KPD2 131415Z 00000KT M05/M07 A3004 RMK A01 T10461068  RH  084%=      5-min Rain = 0
KPD2 131416Z 00000KT M05/M07 A3004 RMK A01 T10451068  RH  084%=      5-min Rain = 0
KPD2 131417Z 00000KT M05/M07 A3004 RMK A01 T10461068  RH  084%=      5-min Rain = 0
KPD2 131418Z 00000KT M05/M07 A3004 RMK A01 T10451068  RH  084%=      5-min Rain = 0
KPD2 131419Z 00000KT M05/M07 A3004 RMK A01 T10451068  RH  084%=      5-min Rain = 0
KPD2 131420Z 00000KT M05/M07 A3004 RMK A01 T10451068  RH  084%=      5-min Rain = 0
KPD2 131421Z 27001KT M05/M07 A3004 RMK A01 T10461069  RH  084%=      5-min Rain = 0
KPD2 131422Z 27001KT M05/M07 A3004 RMK A01 T10461069  RH  084%=      5-min Rain = 0
KPD2 131423Z 27002KT M05/M07 A3004 RMK A01 T10461069  RH  084%=      5-min Rain = 0
KPD2 131424Z 27002KT M05/M07 A3004 RMK A01 T10461069  RH  084%=      5-min Rain = 0
KPD2 131425Z 27002KT M05/M07 A3004 RMK A01 T10461069  RH  084%=      5-min Rain = 0
KPD2 131426Z 27002KT M05/M07 A3005 RMK A01 T10461070  RH  084%=      5-min Rain = 0
KPD2 131427Z 27003KT M05/M07 A3005 RMK A01 T10471070  RH  084%=      5-min Rain = 0
KPD2 131428Z 28002KT M05/M07 A3005 RMK A01 T10471070  RH  084%=      5-min Rain = 0
KPD2 131429Z 28002KT M05/M07 A3004 RMK A01 T10471070  RH  084%=      5-min Rain = 0
KPD2 131430Z 28002KT M05/M07 A3004 RMK A01 T10471070  RH  084%=      5-min Rain = 0
KPD2 131431Z 28002KT M05/M07 A3005 RMK A01 T10471070  RH  084%=      5-min Rain = 0
KPD2 131432Z 28003KT M05/M07 A3005 RMK A01 T10471070  RH  084%=      5-min Rain = 0
KPD2 131433Z 28003KT M05/M07 A3005 RMK A01 T10481070  RH  084%=      5-min Rain = 0
KPD2 131434Z 29002KT M05/M07 A3005 RMK A01 T10481070  RH  085%=      5-min Rain = 0
KPD2 131435Z 29002KT M05/M07 A3005 RMK A01 T10481070  RH  085%=      5-min Rain = 0
KPD2 131436Z 29001KT M05/M07 A3005 RMK A01 T10481070  RH  085%=      5-min Rain = 0
KPD2 131437Z 29001KT M05/M07 A3005 RMK A01 T10481070  RH  085%=      5-min Rain = 0
KPD2 131438Z 29001KT M05/M07 A3005 RMK A01 T10491070  RH  085%=      5-min Rain = 0
KPD2 131439Z 29000KT M05/M07 A3005 RMK A01 T10491070  RH  085%=      5-min Rain = 0
KPD2 131440Z 28001KT M05/M07 A3005 RMK A01 T10481070  RH  085%=      5-min Rain = 0
KPD2 131441Z 29002KT M05/M07 A3005 RMK A01 T10491070  RH  085%=      5-min Rain = 0
KPD2 131442Z 29002KT M05/M07 A3005 RMK A01 T10481069  RH  085%=      5-min Rain = 0
KPD2 131443Z 29002KT M05/M07 A3005 RMK A01 T10471069  RH  085%=      5-min Rain = 0
KPD2 131444Z 31002KT M05/M07 A3005 RMK A01 T10471068  RH  085%=      5-min Rain = 0
KPD2 131445Z 31002KT M05/M07 A3005 RMK A01 T10471068  RH  085%=      5-min Rain = 0
KPD2 131446Z 31002KT M05/M07 A3005 RMK A01 T10461068  RH  085%=      5-min Rain = 0
KPD2 131447Z 30002KT M05/M07 A3005 RMK A01 T10461068  RH  085%=      5-min Rain = 0
KPD2 131448Z 30001KT M05/M07 A3004 RMK A01 T10461068  RH  085%=      5-min Rain = 0
KPD2 131449Z 33001KT M05/M07 A3004 RMK A01 T10451067  RH  085%=      5-min Rain = 0
KPD2 131450Z 34002KT M05/M07 A3004 RMK A01 T10451067  RH  085%=      5-min Rain = 0
KPD2 131451Z 34002KT M04/M07 A3004 RMK A01 T10441066  RH  085%=      5-min Rain = 0
KPD2 131452Z 32003KT M04/M07 A3004 RMK A01 T10431066  RH  084%=      5-min Rain = 0
KPD2 131453Z 34002KT M04/M07 A3004 RMK A01 T10421065  RH  084%=      5-min Rain = 0
KPD2 131454Z 34002KT M04/M06 A3004 RMK A01 T10411064  RH  084%=      5-min Rain = 0
KPD2 131455Z 34002KT M04/M06 A3004 RMK A01 T10401063  RH  084%=      5-min Rain = 0
KPD2 131456Z 36001KT M04/M06 A3004 RMK A01 T10391063  RH  083%=      5-min Rain = 0
KPD2 131457Z 36002KT M04/M06 A3004 RMK A01 T10381062  RH  083%=      5-min Rain = 0
KPD2 131458Z 34002KT M04/M06 A3004 RMK A01 T10371062  RH  083%=      5-min Rain = 0
KPD2 131459Z 00001KT M04/M06 A3004 RMK A01 T10361062  RH  082%=      5-min Rain = 0
KPD2 131500Z 01002KT M04/M06 A3004 RMK A01 T10351061  RH  082%=      5-min Rain = 0
KPD2 131501Z 01001KT M03/M06 A3004 RMK A01 T10341060  RH  082%=      5-min Rain = 0
KPD2 131502Z 35002KT M03/M06 A3004 RMK A01 T10331059  RH  082%=      5-min Rain = 0
KPD2 131503Z 35002KT M03/M06 A3004 RMK A01 T10311059  RH  081%=      5-min Rain = 0
KPD2 131504Z 01002KT M03/M06 A3004 RMK A01 T10311061  RH  080%=      5-min Rain = 0
KPD2 131505Z 01002KT M03/M06 A3004 RMK A01 T10301060  RH  079%=      5-min Rain = 0
KPD2 131506Z 01002KT M03/M06 A3004 RMK A01 T10291059  RH  079%=      5-min Rain = 0
KPD2 131507Z 01002KT M03/M06 A3003 RMK A01 T10281059  RH  079%=      5-min Rain = 0
KPD2 131508Z 02002KT M03/M06 A3003 RMK A01 T10271058  RH  079%=      5-min Rain = 0
KPD2 131509Z 01002KT M03/M06 A3003 RMK A01 T10261057  RH  079%=      5-min Rain = 0
KPD2 131510Z 01002KT M03/M06 A3003 RMK A01 T10261056  RH  079%=      5-min Rain = 0
KPD2 131511Z 01002KT M03/M06 A3003 RMK A01 T10251057  RH  079%=      5-min Rain = 0
KPD2 131512Z 01002KT M03/M06 A3003 RMK A01 T10251059  RH  078%=      5-min Rain = 0
KPD2 131513Z 01001KT M03/M06 A3003 RMK A01 T10251060  RH  077%=      5-min Rain = 0
KPD2 131514Z 01001KT M03/M06 A3003 RMK A01 T10251060  RH  077%=      5-min Rain = 0
KPD2 131515Z 01001KT M02/M06 A3003 RMK A01 T10241058  RH  077%=      5-min Rain = 0
KPD2 131516Z 32001KT M02/M06 A3003 RMK A01 T10241057  RH  078%=      5-min Rain = 0
KPD2 131517Z 31002KT M02/M06 A3003 RMK A01 T10231056  RH  078%=      5-min Rain = 0
KPD2 131518Z 30002KT M02/M06 A3003 RMK A01 T10221056  RH  077%=      5-min Rain = 0
KPD2 131519Z 30002KT M02/M06 A3003 RMK A01 T10211056  RH  077%=      5-min Rain = 0
KPD2 131520Z 30002KT M02/M06 A3003 RMK A01 T10201056  RH  076%=      5-min Rain = 0
KPD2 131521Z 30001KT M02/M06 A3003 RMK A01 T10191055  RH  077%=      5-min Rain = 0
KPD2 131522Z 29002KT M02/M06 A3003 RMK A01 T10181055  RH  076%=      5-min Rain = 0
KPD2 131523Z 30001KT M02/M06 A3003 RMK A01 T10181056  RH  075%=      5-min Rain = 0
KPD2 131524Z 30002KT M02/M05 A3003 RMK A01 T10171054  RH  076%=      5-min Rain = 0
KPD2 131525Z 31001KT M02/M06 A3003 RMK A01 T10161055  RH  075%=      5-min Rain = 0
KPD2 131526Z 31001KT M02/M06 A3003 RMK A01 T10171056  RH  074%=      5-min Rain = 0
KPD2 131527Z 31001KT M02/M06 A3003 RMK A01 T10171056  RH  075%=      5-min Rain = 0
KPD2 131528Z 30001KT M02/M06 A3003 RMK A01 T10161056  RH  074%=      5-min Rain = 0
KPD2 131529Z 30001KT M02/M06 A3003 RMK A01 T10171056  RH  074%=      5-min Rain = 0
KPD2 131530Z 30001KT M02/M06 A3003 RMK A01 T10171056  RH  074%=      5-min Rain = 0
KPD2 131531Z 29001KT M02/M06 A3003 RMK A01 T10161056  RH  075%=      5-min Rain = 0
KPD2 131532Z 29000KT M02/M05 A3003 RMK A01 T10161054  RH  075%=      5-min Rain = 0
KPD2 131533Z 29001KT M02/M05 A3003 RMK A01 T10151054  RH  075%=      5-min Rain = 0
KPD2 131534Z 29001KT M02/M05 A3003 RMK A01 T10151053  RH  075%=      5-min Rain = 0
KPD2 131535Z 31002KT M01/M05 A3003 RMK A01 T10141052  RH  075%=      5-min Rain = 0
KPD2 131536Z 30002KT M01/M05 A3003 RMK A01 T10141052  RH  075%=      5-min Rain = 0
KPD2 131537Z 31002KT M01/M05 A3003 RMK A01 T10131052  RH  075%=      5-min Rain = 0
KPD2 131538Z 31001KT M01/M05 A3003 RMK A01 T10131052  RH  074%=      5-min Rain = 0
KPD2 131539Z 31002KT M01/M05 A3003 RMK A01 T10131052  RH  075%=      5-min Rain = 0
KPD2 131540Z 30002KT M01/M05 A3003 RMK A01 T10121051  RH  075%=      5-min Rain = 0
KPD2 131541Z 31002KT M01/M05 A3003 RMK A01 T10111052  RH  074%=      5-min Rain = 0
KPD2 131542Z 31001KT M01/M05 A3003 RMK A01 T10111052  RH  073%=      5-min Rain = 0
KPD2 131543Z 31001KT M01/M05 A3003 RMK A01 T10101053  RH  073%=      5-min Rain = 0
KPD2 131544Z 31002KT M01/M05 A3003 RMK A01 T10091053  RH  072%=      5-min Rain = 0
KPD2 131545Z 32002KT M01/M05 A3003 RMK A01 T10091053  RH  072%=      5-min Rain = 0
KPD2 131546Z 33002KT M01/M05 A3003 RMK A01 T10091053  RH  072%=      5-min Rain = 0
KPD2 131547Z 33003KT M01/M05 A3004 RMK A01 T10081053  RH  072%=      5-min Rain = 0
KPD2 131548Z 32003KT M01/M05 A3004 RMK A01 T10081052  RH  072%=      5-min Rain = 0
KPD2 131549Z 31003KT M01/M05 A3004 RMK A01 T10071052  RH  072%=      5-min Rain = 0
KPD2 131550Z 31003KT M01/M05 A3004 RMK A01 T10071052  RH  071%=      5-min Rain = 0
KPD2 131551Z 31004KT M01/M05 A3004 RMK A01 T10071052  RH  071%=      5-min Rain = 0
KPD2 131552Z 31003KT M01/M05 A3004 RMK A01 T10071052  RH  071%=      5-min Rain = 0
KPD2 131553Z 31004KT M01/M05 A3004 RMK A01 T10071052  RH  072%=      5-min Rain = 0
KPD2 131554Z 31003KT M01/M05 A3004 RMK A01 T10071052  RH  072%=      5-min Rain = 0
KPD2 131555Z 29003KT M01/M05 A3004 RMK A01 T10071052  RH  072%=      5-min Rain = 0
KPD2 131556Z 29002KT M01/M05 A3004 RMK A01 T10071051  RH  072%=      5-min Rain = 0
KPD2 131557Z 30002KT M01/M05 A3004 RMK A01 T10061050  RH  072%=      5-min Rain = 0
KPD2 131558Z 31002KT M01/M05 A3004 RMK A01 T10051048  RH  072%=      5-min Rain = 0
KPD2 131559Z 33002KT M00/M05 A3004 RMK A01 T10031048  RH  072%=      5-min Rain = 0
KPD2 131600Z 34003KT M00/M05 A3004 RMK A01 T10021047  RH  071%=      5-min Rain = 0
KPD2 131601Z 34003KT 00/05 A3004 RMK A01 T00000-46  RH  071%=      5-min Rain = 0
KPD2 131602Z 33002KT 00/M05 A3004 RMK A01 T00021045  RH  071%=      5-min Rain = 0
KPD2 131603Z 34002KT 00/M05 A3004 RMK A01 T00041045  RH  070%=      5-min Rain = 0
KPD2 131604Z 33002KT 01/M05 A3004 RMK A01 T00051046  RH  068%=      5-min Rain = 0
KPD2 131605Z 34001KT 01/M05 A3004 RMK A01 T00051047  RH  068%=      5-min Rain = 0
KPD2 131606Z 34001KT 01/M05 A3004 RMK A01 T00061046  RH  068%=      5-min Rain = 0
KPD2 131607Z 31001KT 01/M05 A3004 RMK A01 T00071045  RH  068%=      5-min Rain = 0
KPD2 131608Z 30001KT 01/M05 A3004 RMK A01 T00081045  RH  068%=      5-min Rain = 0
KPD2 131609Z 32002KT 01/M05 A3004 RMK A01 T00081045  RH  068%=      5-min Rain = 0
KPD2 131610Z 33002KT 01/M05 A3003 RMK A01 T00091045  RH  067%=      5-min Rain = 0
KPD2 131611Z 35003KT 01/M05 A3003 RMK A01 T00091045  RH  067%=      5-min Rain = 0
KPD2 131612Z 34002KT 01/M04 A3003 RMK A01 T00101044  RH  067%=      5-min Rain = 0
KPD2 131613Z 34002KT 01/M04 A3003 RMK A01 T00121041  RH  068%=      5-min Rain = 0
KPD2 131614Z 34002KT 01/M04 A3003 RMK A01 T00141041  RH  067%=      5-min Rain = 0
KPD2 131615Z 01002KT 01/M04 A3003 RMK A01 T00141042  RH  066%=      5-min Rain = 0
KPD2 131616Z 02002KT 02/M04 A3003 RMK A01 T00161040  RH  066%=      5-min Rain = 0
KPD2 131617Z 02001KT 02/M04 A3003 RMK A01 T00181039  RH  066%=      5-min Rain = 0
KPD2 131618Z 09000KT 02/M04 A3003 RMK A01 T00191040  RH  065%=      5-min Rain = 0
KPD2 131619Z 09000KT 02/M04 A3003 RMK A01 T00201038  RH  065%=      5-min Rain = 0
KPD2 131620Z 00000KT 02/M04 A3003 RMK A01 T00211039  RH  064%=      5-min Rain = 0
KPD2 131621Z 09000KT 02/M04 A3003 RMK A01 T00211041  RH  063%=      5-min Rain = 0
KPD2 131622Z 15000KT 02/M04 A3003 RMK A01 T00221041  RH  063%=      5-min Rain = 0
KPD2 131623Z 28001KT 02/M04 A3003 RMK A01 T00231040  RH  063%=      5-min Rain = 0
KPD2 131624Z 31001KT 02/M04 A3003 RMK A01 T00241039  RH  063%=      5-min Rain = 0
KPD2 131625Z 31002KT 03/M04 A3003 RMK A01 T00261037  RH  063%=      5-min Rain = 0
KPD2 131626Z 32001KT 03/M04 A3003 RMK A01 T00271039  RH  061%=      5-min Rain = 0
KPD2 131627Z 01001KT 03/M04 A3003 RMK A01 T00271040  RH  061%=      5-min Rain = 0
KPD2 131628Z 02002KT 03/M04 A3003 RMK A01 T00281038  RH  061%=      5-min Rain = 0
KPD2 131629Z 03002KT 03/M04 A3003 RMK A01 T00301038  RH  061%=      5-min Rain = 0
KPD2 131630Z 03000KT 03/M04 A3003 RMK A01 T00311038  RH  060%=      5-min Rain = 0
KPD2 131631Z 01000KT 03/M04 A3003 RMK A01 T00331036  RH  061%=      5-min Rain = 0
KPD2 131632Z 28001KT 04/M04 A3003 RMK A01 T00351035  RH  060%=      5-min Rain = 0
KPD2 131633Z 28003KT 04/M04 A3003 RMK A01 T00361039  RH  058%=      5-min Rain = 0
KPD2 131634Z 28003KT 04/M04 A3003 RMK A01 T00361039  RH  058%=      5-min Rain = 0
KPD2 131635Z 27003KT 04/M04 A3003 RMK A01 T00361041  RH  057%=      5-min Rain = 0
KPD2 131636Z 27003KT 04/M04 A3003 RMK A01 T00361042  RH  057%=      5-min Rain = 0
KPD2 131637Z 29002KT 04/M04 A3003 RMK A01 T00371041  RH  057%=      5-min Rain = 0
KPD2 131638Z 27003KT 04/M04 A3003 RMK A01 T00371040  RH  057%=      5-min Rain = 0
KPD2 131639Z 29004KT 04/M04 A3004 RMK A01 T00391040  RH  056%=      5-min Rain = 0
KPD2 131640Z 30004KT 04/M04 A3004 RMK A01 T00401039  RH  056%=      5-min Rain = 0
KPD2 131641Z 28003KT 04/M04 A3004 RMK A01 T00411038  RH  056%=      5-min Rain = 0
KPD2 131642Z 26004KT 04/M04 A3004 RMK A01 T00431037  RH  056%=      5-min Rain = 0
KPD2 131643Z 28003KT 05/M04 A3004 RMK A01 T00451037  RH  055%=      5-min Rain = 0
KPD2 131644Z 28004KT 05/M04 A3004 RMK A01 T00461037  RH  055%=      5-min Rain = 0
KPD2 131645Z 27003KT 05/M04 A3004 RMK A01 T00461040  RH  054%=      5-min Rain = 0
KPD2 131646Z 29003KT 05/M04 A3004 RMK A01 T00461039  RH  054%=      5-min Rain = 0
KPD2 131647Z 27003KT 05/M04 A3004 RMK A01 T00461037  RH  055%=      5-min Rain = 0
KPD2 131648Z 28004KT 05/M04 A3004 RMK A01 T00481035  RH  055%=      5-min Rain = 0
KPD2 131649Z 28005KT 05/M04 A3004 RMK A01 T00491035  RH  055%=      5-min Rain = 0
KPD2 131650Z 28005KT 05/M04 A3004 RMK A01 T00491037  RH  054%=      5-min Rain = 0
KPD2 131651Z 29005KT 05/M04 A3004 RMK A01 T00481037  RH  054%=      5-min Rain = 0
KPD2 131652Z 28003KT 05/M04 A3004 RMK A01 T00481036  RH  054%=      5-min Rain = 0
KPD2 131653Z 29004KT 05/M04 A3004 RMK A01 T00481036  RH  054%=      5-min Rain = 0
KPD2 131654Z 28003KT 05/M04 A3004 RMK A01 T00471036  RH  055%=      5-min Rain = 0
KPD2 131655Z 27004KT 05/M04 A3004 RMK A01 T00471037  RH  055%=      5-min Rain = 0
KPD2 131656Z 29005KT 05/M04 A3003 RMK A01 T00471037  RH  055%=      5-min Rain = 0
KPD2 131657Z 29004KT 05/M04 A3003 RMK A01 T00461038  RH  055%=      5-min Rain = 0
KPD2 131658Z 29004KT 05/M04 A3003 RMK A01 T00461037  RH  055%=      5-min Rain = 0
KPD2 131659Z 29002KT 05/M04 A3003 RMK A01 T00461036  RH  055%=      5-min Rain = 0
KPD2 131700Z 29004KT 05/M04 A3003 RMK A01 T00461035  RH  056%=      5-min Rain = 0
KPD2 131701Z 29004KT 05/M04 A3003 RMK A01 T00461035  RH  056%=      5-min Rain = 0
KPD2 131702Z 29005KT 05/M04 A3003 RMK A01 T00471035  RH  055%=      5-min Rain = 0
KPD2 131703Z 29004KT 05/M04 A3003 RMK A01 T00471036  RH  055%=      5-min Rain = 0
KPD2 131704Z 29004KT 05/M03 A3003 RMK A01 T00471034  RH  055%=      5-min Rain = 0
KPD2 131705Z 29004KT 05/M03 A3003 RMK A01 T00481034  RH  055%=      5-min Rain = 0
KPD2 131706Z 29004KT 05/M03 A3003 RMK A01 T00491033  RH  055%=      5-min Rain = 0
KPD2 131707Z 30004KT 05/M03 A3003 RMK A01 T00501033  RH  055%=      5-min Rain = 0
KPD2 131708Z 30005KT 05/M03 A3003 RMK A01 T00501033  RH  055%=      5-min Rain = 0
KPD2 131709Z 30004KT 05/M03 A3003 RMK A01 T00501033  RH  055%=      5-min Rain = 0
KPD2 131710Z 30004KT 05/M03 A3003 RMK A01 T00501033  RH  055%=      5-min Rain = 0
KPD2 131711Z 32003KT 05/M03 A3002 RMK A01 T00511031  RH  055%=      5-min Rain = 0
KPD2 131712Z 33003KT 05/M03 A3002 RMK A01 T00521032  RH  055%=      5-min Rain = 0
KPD2 131713Z 34003KT 05/M03 A3002 RMK A01 T00541030  RH  055%=      5-min Rain = 0
KPD2 131714Z 34003KT 06/M03 A3002 RMK A01 T00561027  RH  055%=      5-min Rain = 0
KPD2 131715Z 32003KT 06/M03 A3002 RMK A01 T00591025  RH  055%=      5-min Rain = 0
KPD2 131716Z 31003KT 06/M03 A3002 RMK A01 T00621026  RH  053%=      5-min Rain = 0
KPD2 131717Z 31004KT 06/M03 A3002 RMK A01 T00631029  RH  052%=      5-min Rain = 0
KPD2 131718Z 30004KT 07/M03 A3002 RMK A01 T00651026  RH  052%=      5-min Rain = 0
KPD2 131719Z 30006KT 07/M03 A3002 RMK A01 T00671029  RH  051%=      5-min Rain = 0
KPD2 131720Z 31006KT 07/M03 A3002 RMK A01 T00671030  RH  050%=      5-min Rain = 0
KPD2 131721Z 31007KT 07/M03 A3002 RMK A01 T00681030  RH  050%=      5-min Rain = 0
KPD2 131722Z 31007KT 07/M03 A3002 RMK A01 T00691029  RH  050%=      5-min Rain = 0
KPD2 131723Z 32007KT 07/M03 A3002 RMK A01 T00701031  RH  049%=      5-min Rain = 0
KPD2 131724Z 33007KT 07/M03 A3002 RMK A01 T00711029  RH  049%=      5-min Rain = 0
KPD2 131725Z 33005KT 07/M03 A3002 RMK A01 T00721027  RH  049%=      5-min Rain = 0
KPD2 131726Z 30007KT 08/M02 A3002 RMK A01 T00751024  RH  050%=      5-min Rain = 0
KPD2 131727Z 30006KT 08/M03 A3002 RMK A01 T00761026  RH  048%=      5-min Rain = 0
KPD2 131728Z 32005KT 08/M03 A3002 RMK A01 T00771026  RH  048%=      5-min Rain = 0
KPD2 131729Z 29006KT 08/M03 A3002 RMK A01 T00781027  RH  047%=      5-min Rain = 0
KPD2 131730Z 29006KT 08/M03 A3002 RMK A01 T00791029  RH  046%=      5-min Rain = 0
KPD2 131731Z 31006KT 08/M03 A3001 RMK A01 T00781030  RH  046%=      5-min Rain = 0
KPD2 131732Z 32005KT 08/M03 A3001 RMK A01 T00791026  RH  048%=      5-min Rain = 0
KPD2 131733Z 30004KT 08/M02 A3001 RMK A01 T00811024  RH  048%=      5-min Rain = 0
KPD2 131734Z 32005KT 08/M03 A3001 RMK A01 T00821026  RH  046%=      5-min Rain = 0
KPD2 131735Z 31006KT 08/M03 A3001 RMK A01 T00821025  RH  047%=      5-min Rain = 0
KPD2 131736Z 30005KT 08/M03 A3001 RMK A01 T00831025  RH  046%=      5-min Rain = 0
KPD2 131737Z 31005KT 08/M03 A3001 RMK A01 T00831026  RH  046%=      5-min Rain = 0
KPD2 131738Z 31006KT 08/M03 A3001 RMK A01 T00841025  RH  046%=      5-min Rain = 0
KPD2 131739Z 30005KT 09/M03 A3001 RMK A01 T00851025  RH  046%=      5-min Rain = 0
KPD2 131740Z 32007KT 09/M03 A3001 RMK A01 T00861025  RH  046%=      5-min Rain = 0
KPD2 131741Z 33006KT 09/M02 A3001 RMK A01 T00871021  RH  047%=      5-min Rain = 0
KPD2 131742Z 33007KT 09/M02 A3001 RMK A01 T00901018  RH  047%=      5-min Rain = 0
KPD2 131743Z 32006KT 09/M02 A3001 RMK A01 T00911021  RH  046%=      5-min Rain = 0
KPD2 131744Z 32004KT 09/M02 A3001 RMK A01 T00921021  RH  045%=      5-min Rain = 0
KPD2 131745Z 31005KT 09/M02 A3001 RMK A01 T00911020  RH  046%=      5-min Rain = 0
KPD2 131746Z 31004KT 09/M02 A3001 RMK A01 T00921023  RH  044%=      5-min Rain = 0
KPD2 131747Z 33004KT 09/M02 A3001 RMK A01 T00911021  RH  046%=      5-min Rain = 0
KPD2 131748Z 35003KT 09/M02 A30 RMK A01 T00931017  RH  046%=      5-min Rain = 0
KPD2 131749Z 31003KT 10/M02 A30 RMK A01 T00951019  RH  045%=      5-min Rain = 0
KPD2 131750Z 30004KT 10/M02 A30 RMK A01 T00961021  RH  044%=      5-min Rain = 0
KPD2 131751Z 28004KT 10/M02 A30 RMK A01 T00951023  RH  044%=      5-min Rain = 0
KPD2 131752Z 28003KT 10/M02 A30 RMK A01 T00951022  RH  044%=      5-min Rain = 0
KPD2 131753Z 29004KT 10/M02 A30 RMK A01 T00951021  RH  044%=      5-min Rain = 0
KPD2 131754Z 29001KT 10/M02 A30 RMK A01 T00951023  RH  044%=      5-min Rain = 0
KPD2 131755Z 32002KT 10/M02 A30 RMK A01 T00951023  RH  044%=      5-min Rain = 0
KPD2 131756Z 31003KT 10/M02 A2999 RMK A01 T00961023  RH  044%=      5-min Rain = 0
KPD2 131757Z 32003KT 10/M02 A2999 RMK A01 T00971022  RH  043%=      5-min Rain = 0
KPD2 131758Z 35003KT 10/M02 A2999 RMK A01 T00971022  RH  043%=      5-min Rain = 0
KPD2 131759Z 00003KT 10/M02 A2999 RMK A01 T00991020  RH  043%=      5-min Rain = 0
KPD2 131800Z 36001KT 10/M02 A2999 RMK A01 T01011020  RH  043%=      5-min Rain = 0
KPD2 131801Z 01002KT 10/M02 A2999 RMK A01 T01021020  RH  043%=      5-min Rain = 0
KPD2 131802Z 35002KT 10/M02 A2998 RMK A01 T01031019  RH  043%=      5-min Rain = 0
KPD2 131803Z 30001KT 11/M02 A2998 RMK A01 T01051018  RH  042%=      5-min Rain = 0
KPD2 131804Z 28003KT 11/M02 A2998 RMK A01 T01071018  RH  042%=      5-min Rain = 0
KPD2 131805Z 26002KT 11/M02 A2998 RMK A01 T01091018  RH  041%=      5-min Rain = 0
KPD2 131806Z 26003KT 11/M02 A2998 RMK A01 T01101019  RH  041%=      5-min Rain = 0
KPD2 131807Z 27004KT 11/M02 A2998 RMK A01 T01111020  RH  040%=      5-min Rain = 0
KPD2 131808Z 29003KT 11/M02 A2998 RMK A01 T01111021  RH  040%=      5-min Rain = 0
KPD2 131809Z 28004KT 11/M02 A2997 RMK A01 T01111022  RH  039%=      5-min Rain = 0
KPD2 131810Z 26003KT 11/M02 A2997 RMK A01 T01111022  RH  040%=      5-min Rain = 0
KPD2 131811Z 26003KT 11/M02 A2997 RMK A01 T01111021  RH  040%=      5-min Rain = 0
KPD2 131812Z 26003KT 11/M02 A2997 RMK A01 T01111020  RH  040%=      5-min Rain = 0
KPD2 131813Z 26004KT 11/M02 A2997 RMK A01 T01131021  RH  039%=      5-min Rain = 0
KPD2 131814Z 28004KT 11/M02 A2997 RMK A01 T01131019  RH  040%=      5-min Rain = 0
KPD2 131815Z 28005KT 11/M02 A2997 RMK A01 T01141020  RH  039%=      5-min Rain = 0
KPD2 131816Z 29004KT 11/M02 A2997 RMK A01 T01141023  RH  038%=      5-min Rain = 0
KPD2 131817Z 27002KT 11/M02 A2996 RMK A01 T01121024  RH  039%=      5-min Rain = 0
KPD2 131818Z 33003KT 11/M02 A2996 RMK A01 T01121023  RH  039%=      5-min Rain = 0
KPD2 131819Z 32003KT 11/M02 A2996 RMK A01 T01121021  RH  039%=      5-min Rain = 0
KPD2 131820Z 31003KT 11/M02 A2996 RMK A01 T01131021  RH  039%=      5-min Rain = 0
KPD2 131821Z 35002KT 11/M02 A2996 RMK A01 T01141023  RH  038%=      5-min Rain = 0
KPD2 131822Z 35001KT 12/M02 A2996 RMK A01 T01151018  RH  040%=      5-min Rain = 0
KPD2 131823Z 25003KT 12/M02 A2995 RMK A01 T01181016  RH  039%=      5-min Rain = 0
KPD2 131824Z 27003KT 12/M02 A2995 RMK A01 T01211017  RH  038%=      5-min Rain = 0
KPD2 131825Z 30002KT 12/M02 A2995 RMK A01 T01211023  RH  037%=      5-min Rain = 0
KPD2 131826Z 29003KT 12/M03 A2995 RMK A01 T01191026  RH  036%=      5-min Rain = 0
KPD2 131827Z 29003KT 12/M03 A2995 RMK A01 T01181026  RH  037%=      5-min Rain = 0
KPD2 131828Z 24002KT 12/M03 A2995 RMK A01 T01171025  RH  037%=      5-min Rain = 0
KPD2 131829Z 32001KT 12/M03 A2995 RMK A01 T01171025  RH  037%=      5-min Rain = 0
KPD2 131830Z 31002KT 12/M02 A2995 RMK A01 T01191022  RH  038%=      5-min Rain = 0
KPD2 131831Z 28002KT 12/M02 A2994 RMK A01 T01211018  RH  038%=      5-min Rain = 0
KPD2 131832Z 31004KT 12/M02 A2994 RMK A01 T01241020  RH  037%=      5-min Rain = 0
KPD2 131833Z 30002KT 12/M02 A2994 RMK A01 T01231024  RH  036%=      5-min Rain = 0
KPD2 131834Z 23002KT 12/M02 A2994 RMK A01 T01231023  RH  036%=      5-min Rain = 0
KPD2 131835Z 26003KT 13/M02 A2994 RMK A01 T01251020  RH  037%=      5-min Rain = 0
KPD2 131836Z 26005KT 13/M02 A2994 RMK A01 T01281020  RH  036%=      5-min Rain = 0
KPD2 131837Z 26005KT 13/M02 A2993 RMK A01 T01291021  RH  035%=      5-min Rain = 0
KPD2 131838Z 27003KT 13/M02 A2993 RMK A01 T01301022  RH  035%=      5-min Rain = 0
KPD2 131839Z 28002KT 13/M02 A2993 RMK A01 T01291022  RH  035%=      5-min Rain = 0
KPD2 131840Z 33001KT 13/M02 A2993 RMK A01 T01301019  RH  036%=      5-min Rain = 0
KPD2 131841Z 28002KT 13/M02 A2993 RMK A01 T01331016  RH  036%=      5-min Rain = 0
KPD2 131842Z 28003KT 14/M02 A2993 RMK A01 T01351018  RH  035%=      5-min Rain = 0
KPD2 131843Z 30004KT 14/M02 A2993 RMK A01 T01361020  RH  034%=      5-min Rain = 0
KPD2 131844Z 30003KT 14/M02 A2993 RMK A01 T01351024  RH  033%=      5-min Rain = 0
KPD2 131845Z 26002KT 13/M02 A2993 RMK A01 T01341023  RH  033%=      5-min Rain = 0
KPD2 131846Z 24003KT 13/M02 A2992 RMK A01 T01341023  RH  034%=      5-min Rain = 0
KPD2 131847Z 27004KT 14/M02 A2992 RMK A01 T01351023  RH  033%=      5-min Rain = 0
KPD2 131848Z 23001KT 14/M02 A2992 RMK A01 T01351022  RH  034%=      5-min Rain = 0
KPD2 131849Z 22004KT 14/M02 A2992 RMK A01 T01351021  RH  034%=      5-min Rain = 0
KPD2 131850Z 21003KT 14/M02 A2992 RMK A01 T01361020  RH  034%=      5-min Rain = 0
KPD2 131851Z 21004KT 14/M02 A2992 RMK A01 T01361022  RH  033%=      5-min Rain = 0
KPD2 131852Z 20003KT 14/M02 A2992 RMK A01 T01361022  RH  033%=      5-min Rain = 0
KPD2 131853Z 21002KT 14/M02 A2992 RMK A01 T01361024  RH  033%=      5-min Rain = 0
KPD2 131854Z 22003KT 14/M02 A2992 RMK A01 T01361023  RH  033%=      5-min Rain = 0
KPD2 131855Z 19002KT 14/M02 A2992 RMK A01 T01371023  RH  033%=      5-min Rain = 0
KPD2 131856Z 23003KT 14/M02 A2992 RMK A01 T01381024  RH  032%=      5-min Rain = 0
KPD2 131857Z 25004KT 14/M02 A2992 RMK A01 T01381024  RH  032%=      5-min Rain = 0
KPD2 131858Z 25003KT 14/M02 A2992 RMK A01 T01401024  RH  032%=      5-min Rain = 0
KPD2 131859Z 28002KT 14/M03 A2992 RMK A01 T01411026  RH  031%=      5-min Rain = 0
KPD2 131900Z 29002KT 14/M03 A2991 RMK A01 T01411030  RH  031%=      5-min Rain = 0
KPD2 131901Z 26002KT 14/M03 A2991 RMK A01 T01401028  RH  031%=      5-min Rain = 0
KPD2 131902Z 30001KT 14/M03 A2991 RMK A01 T01391027  RH  032%=      5-min Rain = 0
KPD2 131903Z 00003KT 14/M03 A2991 RMK A01 T01411025  RH  032%=      5-min Rain = 0
KPD2 131904Z 35004KT 14/M03 A2991 RMK A01 T01431025  RH  031%=      5-min Rain = 0
KPD2 131905Z 35005KT 15/M02 A2991 RMK A01 T01461019  RH  032%=      5-min Rain = 0
KPD2 131906Z 32006KT 15/M02 A2991 RMK A01 T01481024  RH  030%=      5-min Rain = 0
KPD2 131907Z 32005KT 15/M02 A2991 RMK A01 T01491023  RH  031%=      5-min Rain = 0
KPD2 131908Z 34004KT 15/M02 A2991 RMK A01 T01491022  RH  031%=      5-min Rain = 0
KPD2 131909Z 36002KT 15/M02 A2991 RMK A01 T01501023  RH  030%=      5-min Rain = 0
KPD2 131910Z 34002KT 15/M03 A2991 RMK A01 T01511026  RH  030%=      5-min Rain = 0
KPD2 131911Z 03003KT 15/M02 A2991 RMK A01 T01511024  RH  030%=      5-min Rain = 0
KPD2 131912Z 06002KT 15/M03 A2991 RMK A01 T01521026  RH  029%=      5-min Rain = 0
KPD2 131913Z 06001KT 15/M03 A299 RMK A01 T01501026  RH  030%=      5-min Rain = 0
KPD2 131914Z 18001KT 15/M03 A299 RMK A01 T01501026  RH  030%=      5-min Rain = 0
KPD2 131915Z 25000KT 15/M03 A299 RMK A01 T01501025  RH  030%=      5-min Rain = 0
KPD2 131916Z 34002KT 15/M02 A299 RMK A01 T01511024  RH  030%=      5-min Rain = 0
KPD2 131917Z 35002KT 15/M02 A299 RMK A01 T01521022  RH  030%=      5-min Rain = 0
KPD2 131918Z 31001KT 15/M03 A299 RMK A01 T01531025  RH  029%=      5-min Rain = 0
KPD2 131919Z 34002KT 15/M02 A299 RMK A01 T01531023  RH  030%=      5-min Rain = 0
KPD2 131920Z 31000KT 16/M02 A299 RMK A01 T01551022  RH  030%=      5-min Rain = 0
KPD2 131921Z 29001KT 16/M03 A299 RMK A01 T01551026  RH  029%=      5-min Rain = 0
KPD2 131922Z 29002KT 16/M02 A299 RMK A01 T01551024  RH  029%=      5-min Rain = 0
KPD2 131923Z 33004KT 16/M02 A299 RMK A01 T01561022  RH  029%=      5-min Rain = 0
KPD2 131924Z 33003KT 16/M03 A299 RMK A01 T01561025  RH  029%=      5-min Rain = 0
KPD2 131925Z 35001KT 16/M02 A299 RMK A01 T01561024  RH  029%=      5-min Rain = 0
KPD2 131926Z 07001KT 16/M02 A299 RMK A01 T01561024  RH  029%=      5-min Rain = 0
KPD2 131927Z 10001KT 16/M02 A2989 RMK A01 T01571023  RH  029%=      5-min Rain = 0
KPD2 131928Z 23000KT 16/M02 A2989 RMK A01 T01601022  RH  029%=      5-min Rain = 0
KPD2 131929Z 22002KT 16/M02 A2989 RMK A01 T01621023  RH  028%=      5-min Rain = 0
KPD2 131930Z 23001KT 16/M02 A2989 RMK A01 T01631023  RH  028%=      5-min Rain = 0
KPD2 131931Z 29002KT 16/M02 A2989 RMK A01 T01631022  RH  028%=      5-min Rain = 0
KPD2 131932Z 29003KT 16/M03 A2989 RMK A01 T01621029  RH  027%=      5-min Rain = 0
KPD2 131933Z 28001KT 16/M03 A2989 RMK A01 T01611030  RH  027%=      5-min Rain = 0
KPD2 131934Z 27002KT 16/M03 A2989 RMK A01 T01611030  RH  027%=      5-min Rain = 0
KPD2 131935Z 26002KT 16/M03 A2989 RMK A01 T01611030  RH  027%=      5-min Rain = 0
KPD2 131936Z 30002KT 16/M03 A2989 RMK A01 T01601030  RH  027%=      5-min Rain = 0
KPD2 131937Z 31002KT 16/M03 A2989 RMK A01 T01611030  RH  027%=      5-min Rain = 0
KPD2 131938Z 31003KT 16/M03 A2989 RMK A01 T01621025  RH  028%=      5-min Rain = 0
KPD2 131939Z 32003KT 16/M03 A2988 RMK A01 T01631028  RH  027%=      5-min Rain = 0
KPD2 131940Z 36001KT 16/M03 A2988 RMK A01 T01631029  RH  027%=      5-min Rain = 0
KPD2 131941Z 04002KT 16/M03 A2988 RMK A01 T01641026  RH  027%=      5-min Rain = 0
KPD2 131942Z 02003KT 17/M03 A2988 RMK A01 T01651026  RH  027%=      5-min Rain = 0
KPD2 131943Z 04002KT 17/M03 A2988 RMK A01 T01661025  RH  027%=      5-min Rain = 0
KPD2 131944Z 10004KT 17/M02 A2988 RMK A01 T01671022  RH  027%=      5-min Rain = 0
KPD2 131945Z 16005KT 17/M02 A2988 RMK A01 T01681018  RH  028%=      5-min Rain = 0
KPD2 131946Z 19004KT 17/M02 A2988 RMK A01 T01681015  RH  029%=      5-min Rain = 0
KPD2 131947Z 17004KT 17/M02 A2988 RMK A01 T01681018  RH  028%=      5-min Rain = 0
KPD2 131948Z 15003KT 17/M02 A2988 RMK A01 T01661019  RH  028%=      5-min Rain = 0
KPD2 131949Z 12005KT 17/M01 A2988 RMK A01 T01661010  RH  030%=      5-min Rain = 0
KPD2 131950Z 12005KT 17/M01 A2988 RMK A01 T01671008  RH  030%=      5-min Rain = 0
KPD2 131951Z 13005KT 17/M01 A2988 RMK A01 T01671008  RH  030%=      5-min Rain = 0
KPD2 131952Z 12004KT 17/M01 A2988 RMK A01 T01671012  RH  030%=      5-min Rain = 0
KPD2 131953Z 12002KT 17/M01 A2988 RMK A01 T01651011  RH  030%=      5-min Rain = 0
KPD2 131954Z 12002KT 17/M01 A2988 RMK A01 T01661011  RH  030%=      5-min Rain = 0
KPD2 131955Z 10002KT 17/M02 A2988 RMK A01 T01661016  RH  029%=      5-min Rain = 0
KPD2 131956Z 10002KT 17/M02 A2988 RMK A01 T01651015  RH  029%=      5-min Rain = 0
KPD2 131957Z 15003KT 17/M01 A2988 RMK A01 T01651014  RH  029%=      5-min Rain = 0
KPD2 131958Z 14004KT 17/M02 A2988 RMK A01 T01651017  RH  029%=      5-min Rain = 0
KPD2 131959Z 14004KT 17/M01 A2988 RMK A01 T01651014  RH  029%=      5-min Rain = 0
KPD2 132000Z 14003KT 17/M02 A2988 RMK A01 T01661015  RH  029%=      5-min Rain = 0
KPD2 132001Z 12003KT 17/M02 A2988 RMK A01 T01671019  RH  028%=      5-min Rain = 0
KPD2 132002Z 12002KT 17/M02 A2988 RMK A01 T01671019  RH  028%=      5-min Rain = 0
KPD2 132003Z 11002KT 17/M02 A2988 RMK A01 T01691015  RH  028%=      5-min Rain = 0
KPD2 132004Z 15003KT 17/M01 A2988 RMK A01 T01701012  RH  029%=      5-min Rain = 0
KPD2 132005Z 14003KT 17/M01 A2988 RMK A01 T01721011  RH  029%=      5-min Rain = 0
KPD2 132006Z 13002KT 17/M01 A2988 RMK A01 T01741013  RH  028%=      5-min Rain = 0
KPD2 132007Z 13003KT 18/M01 A2988 RMK A01 T01761013  RH  028%=      5-min Rain = 0
KPD2 132008Z 14002KT 18/M01 A2988 RMK A01 T01771010  RH  028%=      5-min Rain = 0
KPD2 132009Z 13003KT 18/M01 A2988 RMK A01 T01781012  RH  028%=      5-min Rain = 0
KPD2 132010Z 12004KT 18/M02 A2988 RMK A01 T01771015  RH  027%=      5-min Rain = 0
KPD2 132011Z 11003KT 18/M01 A2988 RMK A01 T01751010  RH  028%=      5-min Rain = 0
KPD2 132012Z 13003KT 18/M01 A2988 RMK A01 T01751007  RH  029%=      5-min Rain = 0
KPD2 132013Z 12002KT 18/M01 A2988 RMK A01 T01761012  RH  028%=      5-min Rain = 0
KPD2 132014Z 13003KT 18/M01 A2988 RMK A01 T01771011  RH  028%=      5-min Rain = 0
KPD2 132015Z 13003KT 18/M01 A2988 RMK A01 T01771012  RH  028%=      5-min Rain = 0
KPD2 132016Z 12003KT 18/M01 A2988 RMK A01 T01771008  RH  028%=      5-min Rain = 0
KPD2 132017Z 11002KT 18/M01 A2988 RMK A01 T01771013  RH  027%=      5-min Rain = 0
KPD2 132018Z 13002KT 18/M01 A2988 RMK A01 T01781008  RH  028%=      5-min Rain = 0
KPD2 132019Z 12003KT 18/M01 A2988 RMK A01 T01781012  RH  028%=      5-min Rain = 0
KPD2 132020Z 16004KT 18/M01 A2988 RMK A01 T01791011  RH  028%=      5-min Rain = 0
KPD2 132021Z 16003KT 18/M01 A2988 RMK A01 T01791013  RH  027%=      5-min Rain = 0
KPD2 132022Z 16003KT 18/M01 A2988 RMK A01 T01781011  RH  028%=      5-min Rain = 0
KPD2 132023Z 17003KT 18/M01 A2988 RMK A01 T01781013  RH  027%=      5-min Rain = 0
KPD2 132024Z 15002KT 18/M01 A2987 RMK A01 T01761014  RH  027%=      5-min Rain = 0
KPD2 132025Z 13001KT 18/M01 A2987 RMK A01 T01771014  RH  027%=      5-min Rain = 0
KPD2 132026Z 12002KT 18/M01 A2987 RMK A01 T01781013  RH  027%=      5-min Rain = 0
KPD2 132027Z 15003KT 18/M01 A2987 RMK A01 T01801009  RH  028%=      5-min Rain = 0
KPD2 132028Z 20003KT 18/M01 A2987 RMK A01 T01821007  RH  028%=      5-min Rain = 0
KPD2 132029Z 21002KT 18/M01 A2987 RMK A01 T01831012  RH  027%=      5-min Rain = 0
KPD2 132030Z 24002KT 18/M01 A2987 RMK A01 T01811011  RH  027%=      5-min Rain = 0
KPD2 132031Z 23001KT 18/M01 A2987 RMK A01 T01811011  RH  027%=      5-min Rain = 0
KPD2 132032Z 00000KT 18/M01 A2987 RMK A01 T01811013  RH  027%=      5-min Rain = 0
KPD2 132033Z 15000KT 18/M01 A2987 RMK A01 T01801011  RH  027%=      5-min Rain = 0
KPD2 132034Z 19002KT 18/M01 A2987 RMK A01 T01811010  RH  027%=      5-min Rain = 0
KPD2 132035Z 18002KT 18/M01 A2987 RMK A01 T01811009  RH  027%=      5-min Rain = 0
KPD2 132036Z 19003KT 18/M01 A2987 RMK A01 T01811008  RH  028%=      5-min Rain = 0
KPD2 132037Z 18002KT 18/M01 A2987 RMK A01 T01811008  RH  028%=      5-min Rain = 0
KPD2 132038Z 20002KT 18/M01 A2987 RMK A01 T01811008  RH  028%=      5-min Rain = 0
KPD2 132039Z 22001KT 18/M01 A2987 RMK A01 T01821009  RH  027%=      5-min Rain = 0
KPD2 132040Z 24002KT 18/M01 A2987 RMK A01 T01831007  RH  028%=      5-min Rain = 0
KPD2 132041Z 23000KT 19/M01 A2987 RMK A01 T01861007  RH  027%=      5-min Rain = 0
KPD2 132042Z 23000KT 19/M01 A2987 RMK A01 T01871010  RH  026%=      5-min Rain = 0
KPD2 132043Z 31000KT 19/M01 A2987 RMK A01 T01871010  RH  026%=      5-min Rain = 0
KPD2 132044Z 26000KT 19/M01 A2987 RMK A01 T01871008  RH  027%=      5-min Rain = 0
KPD2 132045Z 29000KT 19/M01 A2987 RMK A01 T01881009  RH  026%=      5-min Rain = 0
KPD2 132046Z 20001KT 19/M01 A2987 RMK A01 T01891007  RH  027%=      5-min Rain = 0
KPD2 132047Z 22002KT 19/M01 A2987 RMK A01 T01901008  RH  026%=      5-min Rain = 0
KPD2 132048Z 21000KT 19/M01 A2987 RMK A01 T01891013  RH  026%=      5-min Rain = 0
KPD2 132049Z 15001KT 19/M01 A2987 RMK A01 T01901010  RH  026%=      5-min Rain = 0
KPD2 132050Z 16001KT 19/M01 A2987 RMK A01 T01911010  RH  026%=      5-min Rain = 0
KPD2 132051Z 20000KT 19/M01 A2987 RMK A01 T01921010  RH  026%=      5-min Rain = 0
KPD2 132052Z 25001KT 19/M01 A2987 RMK A01 T01921010  RH  025%=      5-min Rain = 0
KPD2 132053Z 21001KT 19/M01 A2987 RMK A01 T01931011  RH  025%=      5-min Rain = 0
KPD2 132054Z 15001KT 19/M01 A2987 RMK A01 T01931013  RH  025%=      5-min Rain = 0
KPD2 132055Z 16001KT 19/M01 A2987 RMK A01 T01921014  RH  025%=      5-min Rain = 0
KPD2 132056Z 21003KT 19/M01 A2987 RMK A01 T01921011  RH  025%=      5-min Rain = 0
KPD2 132057Z 15004KT 19/M01 A2987 RMK A01 T01911006  RH  026%=      5-min Rain = 0
KPD2 132058Z 15004KT 19/M01 A2986 RMK A01 T01901008  RH  026%=      5-min Rain = 0
KPD2 132059Z 16004KT 19/M01 A2986 RMK A01 T01871011  RH  026%=      5-min Rain = 0
KPD2 132100Z 16003KT 19/M01 A2987 RMK A01 T01861010  RH  027%=      5-min Rain = 0
KPD2 132101Z 16004KT 19/M01 A2987 RMK A01 T01851011  RH  026%=      5-min Rain = 0
KPD2 132102Z 15003KT 18/M01 A2987 RMK A01 T01841011  RH  027%=      5-min Rain = 0
KPD2 132103Z 15002KT 18/M02 A2987 RMK A01 T01831015  RH  026%=      5-min Rain = 0
KPD2 132104Z 15002KT 18/M02 A2987 RMK A01 T01821017  RH  026%=      5-min Rain = 0
KPD2 132105Z 16002KT 18/M01 A2987 RMK A01 T01821014  RH  026%=      5-min Rain = 0
KPD2 132106Z 17002KT 18/M01 A2987 RMK A01 T01811012  RH  027%=      5-min Rain = 0
KPD2 132107Z 16001KT 18/M01 A2987 RMK A01 T01811013  RH  027%=      5-min Rain = 0
KPD2 132108Z 16001KT 18/M01 A2987 RMK A01 T01821014  RH  026%=      5-min Rain = 0
KPD2 132109Z 16000KT 18/M02 A2987 RMK A01 T01811017  RH  026%=      5-min Rain = 0
KPD2 132110Z 16000KT 18/M02 A2987 RMK A01 T01811017  RH  026%=      5-min Rain = 0
KPD2 132111Z 14001KT 18/M02 A2986 RMK A01 T01821016  RH  026%=      5-min Rain = 0
KPD2 132112Z 12000KT 18/M02 A2986 RMK A01 T01831016  RH  026%=      5-min Rain = 0
KPD2 132113Z 11001KT 18/M02 A2986 RMK A01 T01841015  RH  026%=      5-min Rain = 0
KPD2 132114Z 11000KT 18/M02 A2986 RMK A01 T01841015  RH  026%=      5-min Rain = 0
KPD2 132115Z 10000KT 18/M02 A2986 RMK A01 T01841018  RH  025%=      5-min Rain = 0
KPD2 132116Z 11000KT 18/M02 A2986 RMK A01 T01841018  RH  025%=      5-min Rain = 0
KPD2 132117Z 00000KT 18/M02 A2986 RMK A01 T01841017  RH  025%=      5-min Rain = 0
KPD2 132118Z 00000KT 18/M02 A2986 RMK A01 T01841017  RH  025%=      5-min Rain = 0
KPD2 132119Z 00000KT 19/M02 A2986 RMK A01 T01851016  RH  026%=      5-min Rain = 0
KPD2 132120Z 12001KT 19/M02 A2986 RMK A01 T01861015  RH  025%=      5-min Rain = 0
KPD2 132121Z 13001KT 19/M02 A2986 RMK A01 T01871018  RH  025%=      5-min Rain = 0
KPD2 132122Z 16001KT 19/M02 A2986 RMK A01 T01881016  RH  025%=      5-min Rain = 0
KPD2 132123Z 17001KT 19/M02 A2986 RMK A01 T01881016  RH  025%=      5-min Rain = 0
KPD2 132124Z 19002KT 19/M01 A2986 RMK A01 T01891008  RH  026%=      5-min Rain = 0
KPD2 132125Z 18002KT 19/M01 A2986 RMK A01 T01901006  RH  027%=      5-min Rain = 0
KPD2 132126Z 18002KT 19/M01 A2986 RMK A01 T01901005  RH  027%=      5-min Rain = 0
KPD2 132127Z 17002KT 19/M01 A2986 RMK A01 T01921006  RH  026%=      5-min Rain = 0
KPD2 132128Z 16002KT 19/M01 A2986 RMK A01 T01931012  RH  025%=      5-min Rain = 0
KPD2 132129Z 15001KT 19/M01 A2986 RMK A01 T01931014  RH  025%=      5-min Rain = 0
KPD2 132130Z 17001KT 19/M01 A2986 RMK A01 T01941014  RH  025%=      5-min Rain = 0
KPD2 132131Z 18001KT 19/M01 A2986 RMK A01 T01941011  RH  025%=      5-min Rain = 0
KPD2 132132Z 15001KT 19/M01 A2986 RMK A01 T01931011  RH  025%=      5-min Rain = 0
KPD2 132133Z 14001KT 19/M01 A2986 RMK A01 T01921010  RH  025%=      5-min Rain = 0
KPD2 132134Z 14001KT 19/M01 A2986 RMK A01 T01931007  RH  026%=      5-min Rain = 0
KPD2 132135Z 13001KT 19/M01 A2986 RMK A01 T01931010  RH  025%=      5-min Rain = 0
KPD2 132136Z 13000KT 19/M01 A2986 RMK A01 T01941011  RH  025%=      5-min Rain = 0
KPD2 132137Z 14000KT 19/M01 A2985 RMK A01 T01941011  RH  025%=      5-min Rain = 0
KPD2 132138Z 16001KT 20/M02 A2985 RMK A01 T01951015  RH  024%=      5-min Rain = 0
KPD2 132139Z 16002KT 20/M02 A2985 RMK A01 T01951015  RH  024%=      5-min Rain = 0
KPD2 132140Z 13002KT 20/M02 A2985 RMK A01 T01951015  RH  024%=      5-min Rain = 0
KPD2 132141Z 12001KT 20/M02 A2985 RMK A01 T01951015  RH  024%=      5-min Rain = 0
KPD2 132142Z 14001KT 20/M02 A2985 RMK A01 T01951015  RH  024%=      5-min Rain = 0
KPD2 132143Z 17001KT 20/M02 A2985 RMK A01 T01961016  RH  024%=      5-min Rain = 0
KPD2 132144Z 21002KT 20/M02 A2985 RMK A01 T01961016  RH  024%=      5-min Rain = 0
KPD2 132145Z 21001KT 20/M02 A2985 RMK A01 T01961017  RH  024%=      5-min Rain = 0
KPD2 132146Z 22001KT 20/M02 A2985 RMK A01 T01961017  RH  024%=      5-min Rain = 0
KPD2 132147Z 17002KT 20/M02 A2985 RMK A01 T01951017  RH  024%=      5-min Rain = 0
KPD2 132148Z 16002KT 19/M02 A2985 RMK A01 T01941015  RH  024%=      5-min Rain = 0
KPD2 132149Z 16001KT 19/M02 A2985 RMK A01 T01931019  RH  024%=      5-min Rain = 0
KPD2 132150Z 19002KT 19/M02 A2985 RMK A01 T01931021  RH  023%=      5-min Rain = 0
KPD2 132151Z 20003KT 19/M02 A2985 RMK A01 T01931019  RH  024%=      5-min Rain = 0
KPD2 132152Z 20003KT 19/M02 A2985 RMK A01 T01931017  RH  024%=      5-min Rain = 0
KPD2 132153Z 19002KT 19/M02 A2985 RMK A01 T01921017  RH  024%=      5-min Rain = 0
KPD2 132154Z 17002KT 19/M02 A2985 RMK A01 T01911020  RH  024%=      5-min Rain = 0
KPD2 132155Z 16002KT 19/M02 A2985 RMK A01 T01921016  RH  024%=      5-min Rain = 0
KPD2 132156Z 16003KT 19/M02 A2985 RMK A01 T01921016  RH  024%=      5-min Rain = 0
KPD2 132157Z 16003KT 19/M02 A2985 RMK A01 T01931015  RH  025%=      5-min Rain = 0
KPD2 132158Z 15003KT 19/M02 A2984 RMK A01 T01931015  RH  025%=      5-min Rain = 0
KPD2 132159Z 15003KT 19/M01 A2984 RMK A01 T01931012  RH  025%=      5-min Rain = 0
KPD2 132200Z 16003KT 19/M01 A2984 RMK A01 T01931014  RH  025%=      5-min Rain = 0
KPD2 132201Z 16002KT 19/M02 A2984 RMK A01 T01931016  RH  024%=      5-min Rain = 0
KPD2 132202Z 15002KT 19/M02 A2984 RMK A01 T01931018  RH  024%=      5-min Rain = 0
KPD2 132203Z 14002KT 19/M02 A2984 RMK A01 T01921018  RH  024%=      5-min Rain = 0
KPD2 132204Z 14002KT 19/M02 A2984 RMK A01 T01911015  RH  025%=      5-min Rain = 0
KPD2 132205Z 14002KT 19/M01 A2984 RMK A01 T01911014  RH  025%=      5-min Rain = 0
KPD2 132206Z 14003KT 19/M02 A2984 RMK A01 T01911015  RH  025%=      5-min Rain = 0
KPD2 132207Z 15002KT 19/M02 A2984 RMK A01 T01901016  RH  025%=      5-min Rain = 0
KPD2 132208Z 14002KT 19/M02 A2984 RMK A01 T01901018  RH  024%=      5-min Rain = 0
KPD2 132209Z 14002KT 19/M02 A2984 RMK A01 T01901017  RH  025%=      5-min Rain = 0
KPD2 132210Z 15002KT 19/M02 A2984 RMK A01 T01901018  RH  024%=      5-min Rain = 0
KPD2 132211Z 16002KT 19/M02 A2984 RMK A01 T01901017  RH  025%=      5-min Rain = 0
KPD2 132212Z 16002KT 19/M02 A2984 RMK A01 T01901016  RH  025%=      5-min Rain = 0
KPD2 132213Z 16003KT 19/M02 A2984 RMK A01 T01891019  RH  024%=      5-min Rain = 0
KPD2 132214Z 15002KT 19/M02 A2984 RMK A01 T01891018  RH  024%=      5-min Rain = 0
KPD2 132215Z 15002KT 19/M02 A2984 RMK A01 T01891017  RH  025%=      5-min Rain = 0
KPD2 132216Z 14003KT 19/M02 A2984 RMK A01 T01881019  RH  024%=      5-min Rain = 0
KPD2 132217Z 13003KT 19/M02 A2984 RMK A01 T01881018  RH  025%=      5-min Rain = 0
KPD2 132218Z 13004KT 19/M01 A2984 RMK A01 T01881012  RH  026%=      5-min Rain = 0
KPD2 132219Z 13004KT 19/M01 A2984 RMK A01 T01871013  RH  026%=      5-min Rain = 0
KPD2 132220Z 13004KT 19/M01 A2984 RMK A01 T01871013  RH  026%=      5-min Rain = 0
KPD2 132221Z 13004KT 19/M01 A2984 RMK A01 T01861011  RH  026%=      5-min Rain = 0
KPD2 132222Z 13004KT 19/M01 A2984 RMK A01 T01861013  RH  026%=      5-min Rain = 0
KPD2 132223Z 13003KT 19/M01 A2984 RMK A01 T01871014  RH  026%=      5-min Rain = 0
KPD2 132224Z 13003KT 19/M01 A2984 RMK A01 T01881012  RH  026%=      5-min Rain = 0
KPD2 132225Z 13002KT 19/M01 A2984 RMK A01 T01881011  RH  026%=      5-min Rain = 0
KPD2 132226Z 13003KT 19/M01 A2984 RMK A01 T01891012  RH  026%=      5-min Rain = 0
KPD2 132227Z 13003KT 19/M01 A2984 RMK A01 T01891012  RH  026%=      5-min Rain = 0
KPD2 132228Z 13003KT 19/M02 A2984 RMK A01 T01891018  RH  025%=      5-min Rain = 0
KPD2 132229Z 12002KT 19/M02 A2984 RMK A01 T01891019  RH  024%=      5-min Rain = 0
KPD2 132230Z 13003KT 19/M02 A2984 RMK A01 T01881016  RH  025%=      5-min Rain = 0
KPD2 132231Z 14002KT 19/M02 A2984 RMK A01 T01881015  RH  025%=      5-min Rain = 0
KPD2 132232Z 14002KT 19/M02 A2984 RMK A01 T01881020  RH  024%=      5-min Rain = 0
KPD2 132233Z 13002KT 19/M02 A2984 RMK A01 T01871016  RH  025%=      5-min Rain = 0
KPD2 132234Z 14002KT 19/M02 A2984 RMK A01 T01871017  RH  025%=      5-min Rain = 0
KPD2 132235Z 14002KT 19/M02 A2984 RMK A01 T01871016  RH  025%=      5-min Rain = 0
KPD2 132236Z 13002KT 19/M02 A2984 RMK A01 T01871016  RH  025%=      5-min Rain = 0
KPD2 132237Z 13002KT 19/M02 A2984 RMK A01 T01871016  RH  025%=      5-min Rain = 0
KPD2 132238Z 13002KT 19/M02 A2984 RMK A01 T01871016  RH  025%=      5-min Rain = 0
KPD2 132239Z 12001KT 19/M02 A2984 RMK A01 T01881016  RH  025%=      5-min Rain = 0
KPD2 132240Z 12001KT 19/M01 A2984 RMK A01 T01891014  RH  025%=      5-min Rain = 0
KPD2 132241Z 14001KT 19/M02 A2984 RMK A01 T01901019  RH  024%=      5-min Rain = 0
KPD2 132242Z 14001KT 19/M02 A2984 RMK A01 T01901018  RH  024%=      5-min Rain = 0
KPD2 132243Z 14001KT 19/M02 A2984 RMK A01 T01911016  RH  025%=      5-min Rain = 0
KPD2 132244Z 14001KT 19/M02 A2984 RMK A01 T01921015  RH  025%=      5-min Rain = 0
KPD2 132245Z 14001KT 19/M01 A2983 RMK A01 T01921013  RH  025%=      5-min Rain = 0
KPD2 132246Z 14001KT 19/M01 A2983 RMK A01 T01921012  RH  025%=      5-min Rain = 0
KPD2 132247Z 15001KT 19/M01 A2983 RMK A01 T01921007  RH  026%=      5-min Rain = 0
KPD2 132248Z 18001KT 19/M01 A2983 RMK A01 T01901008  RH  026%=      5-min Rain = 0
KPD2 132249Z 17002KT 19/M01 A2983 RMK A01 T01881010  RH  026%=      5-min Rain = 0
KPD2 132250Z 16002KT 19/M01 A2983 RMK A01 T01851011  RH  026%=      5-min Rain = 0
KPD2 132251Z 18002KT 18/M01 A2983 RMK A01 T01821014  RH  026%=      5-min Rain = 0
KPD2 132252Z 19002KT 18/M01 A2983 RMK A01 T01801013  RH  027%=      5-min Rain = 0
KPD2 132253Z 19001KT 18/M01 A2983 RMK A01 T01791014  RH  027%=      5-min Rain = 0
KPD2 132254Z 19001KT 18/M02 A2983 RMK A01 T01781015  RH  027%=      5-min Rain = 0
KPD2 132255Z 19001KT 18/M01 A2983 RMK A01 T01781014  RH  027%=      5-min Rain = 0
KPD2 132256Z 20001KT 18/M01 A2983 RMK A01 T01781014  RH  027%=      5-min Rain = 0
KPD2 132257Z 18001KT 18/M02 A2983 RMK A01 T01781016  RH  027%=      5-min Rain = 0
KPD2 132258Z 18001KT 18/M02 A2983 RMK A01 T01771015  RH  027%=      5-min Rain = 0
KPD2 132259Z 18001KT 18/M02 A2983 RMK A01 T01771015  RH  027%=      5-min Rain = 0
KPD2 132300Z 18001KT 18/M01 A2983 RMK A01 T01781014  RH  027%=      5-min Rain = 0
KPD2 132301Z 18001KT 18/M01 A2983 RMK A01 T01781013  RH  027%=      5-min Rain = 0
KPD2 132302Z 17002KT 18/M01 A2983 RMK A01 T01781014  RH  027%=      5-min Rain = 0
KPD2 132303Z 17002KT 18/M01 A2983 RMK A01 T01791012  RH  027%=      5-min Rain = 0
KPD2 132304Z 17002KT 18/M01 A2983 RMK A01 T01791011  RH  028%=      5-min Rain = 0
KPD2 132305Z 17002KT 18/M01 A2984 RMK A01 T01781009  RH  028%=      5-min Rain = 0
KPD2 132306Z 16002KT 18/M01 A2984 RMK A01 T01781009  RH  028%=      5-min Rain = 0
KPD2 132307Z 16002KT 18/M01 A2984 RMK A01 T01771009  RH  028%=      5-min Rain = 0
KPD2 132308Z 17002KT 18/M01 A2984 RMK A01 T01751012  RH  028%=      5-min Rain = 0
KPD2 132309Z 17002KT 17/M01 A2984 RMK A01 T01741013  RH  028%=      5-min Rain = 0
KPD2 132310Z 16002KT 17/M01 A2984 RMK A01 T01731013  RH  028%=      5-min Rain = 0
KPD2 132311Z 15002KT 17/M01 A2984 RMK A01 T01731012  RH  028%=      5-min Rain = 0
KPD2 132312Z 14002KT 17/M01 A2984 RMK A01 T01721011  RH  029%=      5-min Rain = 0
KPD2 132313Z 14002KT 17/M01 A2984 RMK A01 T01721013  RH  028%=      5-min Rain = 0
KPD2 132314Z 13002KT 17/M01 A2984 RMK A01 T01721012  RH  029%=      5-min Rain = 0
KPD2 132315Z 13002KT 17/M01 A2984 RMK A01 T01721010  RH  029%=      5-min Rain = 0
KPD2 132316Z 13002KT 17/M02 A2984 RMK A01 T01711019  RH  027%=      5-min Rain = 0
KPD2 132317Z 13002KT 17/M02 A2984 RMK A01 T01711018  RH  027%=      5-min Rain = 0
KPD2 132318Z 13002KT 17/M01 A2984 RMK A01 T01711014  RH  028%=      5-min Rain = 0
KPD2 132319Z 13001KT 17/M01 A2984 RMK A01 T01711014  RH  028%=      5-min Rain = 0
KPD2 132320Z 14001KT 17/M02 A2984 RMK A01 T01711016  RH  028%=      5-min Rain = 0
KPD2 132321Z 14001KT 17/M02 A2984 RMK A01 T01701015  RH  028%=      5-min Rain = 0
KPD2 132322Z 14000KT 17/M01 A2984 RMK A01 T01681014  RH  029%=      5-min Rain = 0
KPD2 132323Z 00000KT 17/M01 A2984 RMK A01 T01661013  RH  029%=      5-min Rain = 0
KPD2 132324Z 11000KT 16/M02 A2984 RMK A01 T01631018  RH  029%=      5-min Rain = 0
KPD2 132325Z 00000KT 16/M02 A2984 RMK A01 T01611019  RH  029%=      5-min Rain = 0
KPD2 132326Z 00000KT 16/M02 A2985 RMK A01 T01591020  RH  029%=      5-min Rain = 0
KPD2 132327Z 00000KT 16/M02 A2985 RMK A01 T01571019  RH  030%=      5-min Rain = 0
KPD2 132328Z 00000KT 15/M02 A2985 RMK A01 T01541018  RH  031%=      5-min Rain = 0
KPD2 132329Z 02000KT 15/M02 A2985 RMK A01 T01521020  RH  031%=      5-min Rain = 0
KPD2 132330Z 02001KT 15/M02 A2985 RMK A01 T01511022  RH  030%=      5-min Rain = 0
KPD2 132331Z 02000KT 15/M02 A2985 RMK A01 T01501020  RH  031%=      5-min Rain = 0
KPD2 132332Z 02000KT 15/M02 A2985 RMK A01 T01491019  RH  032%=      5-min Rain = 0
KPD2 132333Z 02000KT 15/M02 A2985 RMK A01 T01471020  RH  032%=      5-min Rain = 0
KPD2 132334Z 00000KT 15/M02 A2985 RMK A01 T01471019  RH  032%=      5-min Rain = 0
KPD2 132335Z 00000KT 15/M02 A2985 RMK A01 T01451017  RH  033%=      5-min Rain = 0
KPD2 132336Z 00000KT 14/M02 A2985 RMK A01 T01431019  RH  033%=      5-min Rain = 0
KPD2 132337Z 00000KT 14/M02 A2985 RMK A01 T01421021  RH  032%=      5-min Rain = 0
KPD2 132338Z 00000KT 14/M02 A2985 RMK A01 T01411021  RH  033%=      5-min Rain = 0
KPD2 132339Z 34001KT 14/M02 A2985 RMK A01 T01391020  RH  033%=      5-min Rain = 0
KPD2 132340Z 34002KT 14/M02 A2985 RMK A01 T01381019  RH  034%=      5-min Rain = 0
KPD2 132341Z 34001KT 14/M02 A2985 RMK A01 T01361020  RH  034%=      5-min Rain = 0
KPD2 132342Z 34001KT 14/M02 A2985 RMK A01 T01351021  RH  034%=      5-min Rain = 0
KPD2 132343Z 34002KT 14/M02 A2985 RMK A01 T01351018  RH  035%=      5-min Rain = 0
KPD2 132344Z 34002KT 13/M02 A2985 RMK A01 T01341017  RH  035%=      5-min Rain = 0
KPD2 132345Z 34002KT 13/M02 A2985 RMK A01 T01341017  RH  035%=      5-min Rain = 0
KPD2 132346Z 34002KT 13/M02 A2985 RMK A01 T01341015  RH  036%=      5-min Rain = 0
KPD2 132347Z 34001KT 13/M01 A2984 RMK A01 T01331014  RH  036%=      5-min Rain = 0
KPD2 132348Z 34001KT 13/M02 A2984 RMK A01 T01321015  RH  036%=      5-min Rain = 0
KPD2 132349Z 34001KT 13/M01 A2984 RMK A01 T01301014  RH  037%=      5-min Rain = 0
KPD2 132350Z 34001KT 13/M02 A2984 RMK A01 T01271016  RH  037%=      5-min Rain = 0
KPD2 132351Z 33001KT 13/M02 A2984 RMK A01 T01261018  RH  037%=      5-min Rain = 0
KPD2 132352Z 28001KT 13/M02 A2984 RMK A01 T01251016  RH  038%=      5-min Rain = 0
KPD2 132353Z 00000KT 12/M01 A2984 RMK A01 T01231014  RH  039%=      5-min Rain = 0
KPD2 132354Z 00000KT 12/M02 A2984 RMK A01 T01211017  RH  038%=      5-min Rain = 0
KPD2 132355Z 00000KT 12/M02 A2984 RMK A01 T01211017  RH  038%=      5-min Rain = 0
KPD2 132356Z 30000KT 12/M02 A2984 RMK A01 T01211018  RH  038%=      5-min Rain = 0
KPD2 132357Z 31001KT 12/M02 A2984 RMK A01 T01221019  RH  038%=      5-min Rain = 0
KPD2 132358Z 33001KT 12/M02 A2984 RMK A01 T01231019  RH  037%=      5-min Rain = 0
KPD2 132359Z 33001KT 12/M02 A2984 RMK A01 T01241022  RH  036%=      5-min Rain = 0
KPD2 140000Z 33001KT 13/M02 A2984 RMK A01 T01251022  RH  036%=      5-min Rain = 0
KPD2 140001Z 33001KT 13/M02 A2984 RMK A01 T01261022  RH  036%=      5-min Rain = 0
KPD2 140002Z 31001KT 13/M02 A2984 RMK A01 T01261022  RH  036%=      5-min Rain = 0
KPD2 140003Z 29002KT 12/M02 A2984 RMK A01 T01241022  RH  036%=      5-min Rain = 0
KPD2 140004Z 29001KT 12/M02 A2984 RMK A01 T01241022  RH  036%=      5-min Rain = 0
KPD2 140005Z 28001KT 12/M02 A2984 RMK A01 T01221019  RH  037%=      5-min Rain = 0
KPD2 140006Z 28000KT 12/M01 A2984 RMK A01 T01191011  RH  040%=      5-min Rain = 0
KPD2 140007Z 00000KT 12/M01 A2984 RMK A01 T01161012  RH  041%=      5-min Rain = 0
KPD2 140008Z 00000KT 11/M01 A2984 RMK A01 T01141011  RH  042%=      5-min Rain = 0
KPD2 140009Z 00000KT 11/M02 A2984 RMK A01 T01121015  RH  041%=      5-min Rain = 0
KPD2 140010Z 00000KT 11/M02 A2985 RMK A01 T01111018  RH  040%=      5-min Rain = 0
KPD2 140011Z 00000KT 11/M02 A2985 RMK A01 T01111020  RH  040%=      5-min Rain = 0
KPD2 140012Z 00000KT 11/M02 A2984 RMK A01 T01111020  RH  040%=      5-min Rain = 0
KPD2 140013Z 00000KT 11/M02 A2984 RMK A01 T01111021  RH  040%=      5-min Rain = 0
KPD2 140014Z 00000KT 11/M02 A2984 RMK A01 T01111021  RH  040%=      5-min Rain = 0
KPD2 140015Z 00000KT 11/M02 A2984 RMK A01 T01111022  RH  040%=      5-min Rain = 0
KPD2 140016Z 00000KT 11/M02 A2984 RMK A01 T01111022  RH  039%=      5-min Rain = 0
KPD2 140017Z 00000KT 11/M02 A2984 RMK A01 T01111022  RH  039%=      5-min Rain = 0
KPD2 140018Z 00000KT 11/M02 A2984 RMK A01 T01121021  RH  040%=      5-min Rain = 0
KPD2 140019Z 00000KT 11/M02 A2984 RMK A01 T01121016  RH  041%=      5-min Rain = 0
KPD2 140020Z 00000KT 11/M02 A2984 RMK A01 T01111019  RH  040%=      5-min Rain = 0
KPD2 140021Z 00000KT 11/M02 A2984 RMK A01 T01111019  RH  040%=      5-min Rain = 0
KPD2 140022Z 00000KT 11/M02 A2984 RMK A01 T01111018  RH  041%=      5-min Rain = 0
KPD2 140023Z 28000KT 11/M02 A2984 RMK A01 T01111018  RH  041%=      5-min Rain = 0
KPD2 140024Z 28002KT 11/M02 A2984 RMK A01 T01091019  RH  041%=      5-min Rain = 0
KPD2 140025Z 29002KT 11/M02 A2984 RMK A01 T01061021  RH  041%=      5-min Rain = 0
KPD2 140026Z 29001KT 10/M02 A2984 RMK A01 T01031022  RH  042%=      5-min Rain = 0
KPD2 140027Z 28000KT 10/M02 A2984 RMK A01 T01011019  RH  043%=      5-min Rain = 0
KPD2 140028Z 00000KT 10/M02 A2984 RMK A01 T01001015  RH  045%=      5-min Rain = 0
KPD2 140029Z 00000KT 10/M01 A2984 RMK A01 T00981014  RH  045%=      5-min Rain = 0
KPD2 140030Z 28000KT 10/M02 A2984 RMK A01 T00971015  RH  046%=      5-min Rain = 0
KPD2 140031Z 28001KT 10/M02 A2984 RMK A01 T00961015  RH  046%=      5-min Rain = 0
KPD2 140032Z 29002KT 10/M02 A2984 RMK A01 T00961015  RH  046%=      5-min Rain = 0
KPD2 140033Z 29001KT 10/M02 A2984 RMK A01 T00951015  RH  046%=      5-min Rain = 0
KPD2 140034Z 29001KT 09/M02 A2984 RMK A01 T00931016  RH  046%=      5-min Rain = 0
KPD2 140035Z 29000KT 09/M02 A2984 RMK A01 T00921016  RH  047%=      5-min Rain = 0
KPD2 140036Z 29000KT 09/M01 A2984 RMK A01 T00911014  RH  048%=      5-min Rain = 0
KPD2 140037Z 29002KT 09/M02 A2984 RMK A01 T00901015  RH  048%=      5-min Rain = 0
KPD2 140038Z 30002KT 09/M02 A2984 RMK A01 T00881017  RH  048%=      5-min Rain = 0
KPD2 140039Z 31002KT 09/M02 A2984 RMK A01 T00871018  RH  048%=      5-min Rain = 0
KPD2 140040Z 33002KT 09/M02 A2984 RMK A01 T00861017  RH  048%=      5-min Rain = 0
KPD2 140041Z 33001KT 09/M02 A2984 RMK A01 T00851016  RH  049%=      5-min Rain = 0
KPD2 140042Z 33001KT 09/M02 A2984 RMK A01 T00851016  RH  049%=      5-min Rain = 0
KPD2 140043Z 33001KT 09/M02 A2984 RMK A01 T00851017  RH  049%=      5-min Rain = 0
KPD2 140044Z 33001KT 09/M02 A2984 RMK A01 T00861018  RH  048%=      5-min Rain = 0
KPD2 140045Z 33001KT 09/M02 A2984 RMK A01 T00861018  RH  048%=      5-min Rain = 0
KPD2 140046Z 33001KT 09/M02 A2984 RMK A01 T00861019  RH  048%=      5-min Rain = 0
KPD2 140047Z 00000KT 09/M02 A2984 RMK A01 T00871020  RH  047%=      5-min Rain = 0
KPD2 140048Z 00000KT 09/M02 A2984 RMK A01 T00871021  RH  047%=      5-min Rain = 0
KPD2 140049Z 00000KT 09/M02 A2984 RMK A01 T00871020  RH  047%=      5-min Rain = 0
KPD2 140050Z 00000KT 09/M02 A2984 RMK A01 T00871020  RH  047%=      5-min Rain = 0
KPD2 140051Z 26001KT 09/M02 A2984 RMK A01 T00871020  RH  047%=      5-min Rain = 0
KPD2 140052Z 26001KT 09/M02 A2984 RMK A01 T00871021  RH  047%=      5-min Rain = 0
KPD2 140053Z 26001KT 09/M02 A2984 RMK A01 T00871022  RH  046%=      5-min Rain = 0
KPD2 140054Z 26001KT 09/M02 A2984 RMK A01 T00871022  RH  046%=      5-min Rain = 0
KPD2 140055Z 26001KT 09/M02 A2984 RMK A01 T00871022  RH  046%=      5-min Rain = 0
KPD2 140056Z 26001KT 09/M02 A2984 RMK A01 T00861022  RH  046%=      5-min Rain = 0
KPD2 140057Z 26001KT 09/M02 A2984 RMK A01 T00861022  RH  046%=      5-min Rain = 0
KPD2 140058Z 26000KT 09/M02 A2984 RMK A01 T00861023  RH  046%=      5-min Rain = 0
KPD2 140059Z 00000KT 09/M02 A2984 RMK A01 T00861023  RH  046%=      5-min Rain = 0
KPD2 140100Z 00000KT 09/M02 A2984 RMK A01 T00861024  RH  046%=      5-min Rain = 0
KPD2 140101Z 27000KT 09/M02 A2984 RMK A01 T00851024  RH  046%=      5-min Rain = 0
KPD2 140102Z 29001KT 09/M02 A2984 RMK A01 T00861024  RH  046%=      5-min Rain = 0
KPD2 140103Z 30001KT 09/M02 A2984 RMK A01 T00861024  RH  046%=      5-min Rain = 0
KPD2 140104Z 31001KT 09/M02 A2984 RMK A01 T00861024  RH  046%=      5-min Rain = 0
KPD2 140105Z 31001KT 09/M03 A2984 RMK A01 T00861025  RH  046%=      5-min Rain = 0
KPD2 140106Z 31001KT 09/M03 A2983 RMK A01 T00871026  RH  045%=      5-min Rain = 0
KPD2 140107Z 31001KT 09/M03 A2983 RMK A01 T00881026  RH  045%=      5-min Rain = 0
KPD2 140108Z 31001KT 09/M03 A2983 RMK A01 T00891026  RH  045%=      5-min Rain = 0
KPD2 140109Z 31001KT 09/M03 A2983 RMK A01 T00891026  RH  044%=      5-min Rain = 0
KPD2 140110Z 31002KT 09/M03 A2983 RMK A01 T00891025  RH  045%=      5-min Rain = 0
KPD2 140111Z 31002KT 09/M03 A2983 RMK A01 T00881025  RH  045%=      5-min Rain = 0
KPD2 140112Z 31002KT 09/M03 A2983 RMK A01 T00861025  RH  046%=      5-min Rain = 0
KPD2 140113Z 31002KT 08/M03 A2983 RMK A01 T00841025  RH  046%=      5-min Rain = 0
KPD2 140114Z 30002KT 08/M02 A2983 RMK A01 T00821024  RH  047%=      5-min Rain = 0
KPD2 140115Z 30002KT 08/M02 A2983 RMK A01 T00791024  RH  048%=      5-min Rain = 0
KPD2 140116Z 29002KT 08/M02 A2983 RMK A01 T00771024  RH  049%=      5-min Rain = 0
KPD2 140117Z 29001KT 08/M02 A2983 RMK A01 T00761022  RH  050%=      5-min Rain = 0
KPD2 140118Z 29001KT 08/M02 A2983 RMK A01 T00751021  RH  051%=      5-min Rain = 0
KPD2 140119Z 29001KT 08/M02 A2983 RMK A01 T00751020  RH  051%=      5-min Rain = 0
KPD2 140120Z 32001KT 08/M02 A2983 RMK A01 T00761021  RH  050%=      5-min Rain = 0
KPD2 140121Z 32001KT 08/M02 A2983 RMK A01 T00761023  RH  049%=      5-min Rain = 0
KPD2 140122Z 33002KT 08/M02 A2983 RMK A01 T00781024  RH  049%=      5-min Rain = 0
KPD2 140123Z 33002KT 08/M02 A2984 RMK A01 T00781024  RH  048%=      5-min Rain = 0
KPD2 140124Z 33003KT 08/M02 A2984 RMK A01 T00781022  RH  049%=      5-min Rain = 0
KPD2 140125Z 32003KT 08/M02 A2984 RMK A01 T00761020  RH  050%=      5-min Rain = 0
KPD2 140126Z 32003KT 07/M02 A2983 RMK A01 T00731020  RH  051%=      5-min Rain = 0
KPD2 140127Z 31003KT 07/M02 A2983 RMK A01 T00721021  RH  052%=      5-min Rain = 0
KPD2 140128Z 31003KT 07/M02 A2983 RMK A01 T00711021  RH  052%=      5-min Rain = 0
KPD2 140129Z 31003KT 07/M02 A2984 RMK A01 T00711021  RH  052%=      5-min Rain = 0
KPD2 140130Z 30004KT 07/M02 A2984 RMK A01 T00701021  RH  052%=      5-min Rain = 0
KPD2 140131Z 30004KT 07/M02 A2984 RMK A01 T00701023  RH  052%=      5-min Rain = 0
KPD2 140132Z 30003KT 07/M02 A2984 RMK A01 T00691024  RH  052%=      5-min Rain = 0
KPD2 140133Z 31003KT 07/M03 A2984 RMK A01 T00671025  RH  052%=      5-min Rain = 0
KPD2 140134Z 33003KT 07/M03 A2984 RMK A01 T00651025  RH  052%=      5-min Rain = 0
KPD2 140135Z 33003KT 06/M02 A2984 RMK A01 T00641024  RH  053%=      5-min Rain = 0
KPD2 140136Z 33003KT 06/M02 A2984 RMK A01 T00641023  RH  054%=      5-min Rain = 0
KPD2 140137Z 34003KT 06/M02 A2984 RMK A01 T00641023  RH  054%=      5-min Rain = 0
KPD2 140138Z 35003KT 06/M02 A2984 RMK A01 T00641023  RH  053%=      5-min Rain = 0
KPD2 140139Z 34003KT 06/M02 A2984 RMK A01 T00641024  RH  053%=      5-min Rain = 0
KPD2 140140Z 31003KT 06/M03 A2984 RMK A01 T00641026  RH  053%=      5-min Rain = 0
KPD2 140141Z 29003KT 07/M03 A2984 RMK A01 T00661027  RH  051%=      5-min Rain = 0
KPD2 140142Z 29004KT 07/M03 A2984 RMK A01 T00681029  RH  050%=      5-min Rain = 0
KPD2 140143Z 28004KT 07/M03 A2984 RMK A01 T00691030  RH  049%=      5-min Rain = 0
KPD2 140144Z 28004KT 07/M03 A2984 RMK A01 T00691030  RH  049%=      5-min Rain = 0
KPD2 140145Z 29004KT 07/M03 A2984 RMK A01 T00681030  RH  050%=      5-min Rain = 0
KPD2 140146Z 30003KT 07/M03 A2984 RMK A01 T00661031  RH  050%=      5-min Rain = 0
KPD2 140147Z 30002KT 06/M03 A2984 RMK A01 T00641031  RH  051%=      5-min Rain = 0
KPD2 140148Z 30002KT 06/M03 A2984 RMK A01 T00621031  RH  052%=      5-min Rain = 0
KPD2 140149Z 30004KT 06/M03 A2984 RMK A01 T00591031  RH  052%=      5-min Rain = 0
KPD2 140150Z 30004KT 06/M03 A2984 RMK A01 T00571032  RH  053%=      5-min Rain = 0
KPD2 140151Z 31003KT 05/M03 A2984 RMK A01 T00541032  RH  054%=      5-min Rain = 0
KPD2 140152Z 31004KT 05/M03 A2984 RMK A01 T00531033  RH  054%=      5-min Rain = 0
KPD2 140153Z 33003KT 05/M03 A2984 RMK A01 T00511032  RH  055%=      5-min Rain = 0
KPD2 140154Z 33002KT 05/M03 A2984 RMK A01 T00511031  RH  055%=      5-min Rain = 0
KPD2 140155Z 32002KT 05/M03 A2984 RMK A01 T00511031  RH  056%=      5-min Rain = 0
KPD2 140156Z 28003KT 05/M03 A2984 RMK A01 T00511031  RH  056%=      5-min Rain = 0
KPD2 140157Z 29006KT 05/M03 A2984 RMK A01 T00501032  RH  055%=      5-min Rain = 0
KPD2 140158Z 29006KT 05/M03 A2984 RMK A01 T00501033  RH  055%=      5-min Rain = 0
KPD2 140159Z 29005KT 05/M03 A2984 RMK A01 T00521032  RH  054%=      5-min Rain = 0
KPD2 140200Z 30005KT 05/M03 A2984 RMK A01 T00531033  RH  054%=      5-min Rain = 0
KPD2 140201Z 31004KT 05/M03 A2984 RMK A01 T00531033  RH  054%=      5-min Rain = 0
KPD2 140202Z 32003KT 05/M03 A2984 RMK A01 T00541033  RH  054%=      5-min Rain = 0
KPD2 140203Z 33003KT 05/M03 A2984 RMK A01 T00531033  RH  054%=      5-min Rain = 0
KPD2 140204Z 31003KT 05/M03 A2984 RMK A01 T00521033  RH  054%=      5-min Rain = 0
KPD2 140205Z 32003KT 05/M03 A2984 RMK A01 T00511033  RH  054%=      5-min Rain = 0
KPD2 140206Z 32002KT 05/M03 A2984 RMK A01 T00511033  RH  055%=      5-min Rain = 0
KPD2 140207Z 33002KT 05/M03 A2984 RMK A01 T00521032  RH  055%=      5-min Rain = 0
KPD2 140208Z 32001KT 05/M03 A2984 RMK A01 T00521032  RH  055%=      5-min Rain = 0
KPD2 140209Z 28002KT 05/M03 A2984 RMK A01 T00521032  RH  055%=      5-min Rain = 0
KPD2 140210Z 27002KT 05/M03 A2984 RMK A01 T00521032  RH  055%=      5-min Rain = 0
KPD2 140211Z 26003KT 05/M03 A2984 RMK A01 T00521033  RH  054%=      5-min Rain = 0
KPD2 140212Z 27004KT 05/M03 A2984 RMK A01 T00521033  RH  054%=      5-min Rain = 0
KPD2 140213Z 26003KT 05/M03 A2984 RMK A01 T00511034  RH  054%=      5-min Rain = 0
KPD2 140214Z 26004KT 05/M03 A2984 RMK A01 T00511034  RH  054%=      5-min Rain = 0
KPD2 140215Z 27003KT 05/M03 A2984 RMK A01 T00511034  RH  054%=      5-min Rain = 0
KPD2 140216Z 28003KT 05/M03 A2984 RMK A01 T00501034  RH  055%=      5-min Rain = 0
KPD2 140217Z 29002KT 05/M03 A2984 RMK A01 T00501034  RH  054%=      5-min Rain = 0
KPD2 140218Z 31002KT 05/M03 A2984 RMK A01 T00511034  RH  054%=      5-min Rain = 0
KPD2 140219Z 31001KT 05/M03 A2984 RMK A01 T00521034  RH  054%=      5-min Rain = 0
KPD2 140220Z 31002KT 05/M03 A2984 RMK A01 T00531034  RH  053%=      5-min Rain = 0
KPD2 140221Z 31001KT 05/M03 A2984 RMK A01 T00541033  RH  053%=      5-min Rain = 0
KPD2 140222Z 30001KT 05/M03 A2984 RMK A01 T00541033  RH  053%=      5-min Rain = 0
KPD2 140223Z 29001KT 05/M03 A2984 RMK A01 T00541034  RH  053%=      5-min Rain = 0
KPD2 140224Z 28002KT 05/M04 A2985 RMK A01 T00541035  RH  053%=      5-min Rain = 0
KPD2 140225Z 30001KT 06/M03 A2985 RMK A01 T00551034  RH  053%=      5-min Rain = 0
KPD2 140226Z 30002KT 06/M04 A2985 RMK A01 T00551035  RH  053%=      5-min Rain = 0
KPD2 140227Z 31003KT 06/M04 A2985 RMK A01 T00551035  RH  052%=      5-min Rain = 0
KPD2 140228Z 31002KT 06/M04 A2985 RMK A01 T00551035  RH  052%=      5-min Rain = 0
KPD2 140229Z 32002KT 06/M04 A2985 RMK A01 T00551035  RH  052%=      5-min Rain = 0
KPD2 140230Z 32002KT 06/M04 A2985 RMK A01 T00551035  RH  052%=      5-min Rain = 0
KPD2 140231Z 32003KT 06/M04 A2985 RMK A01 T00551035  RH  052%=      5-min Rain = 0
KPD2 140232Z 31003KT 06/M04 A2985 RMK A01 T00551036  RH  052%=      5-min Rain = 0
KPD2 140233Z 31002KT 06/M04 A2985 RMK A01 T00551036  RH  052%=      5-min Rain = 0
KPD2 140234Z 31003KT 06/M04 A2984 RMK A01 T00551036  RH  052%=      5-min Rain = 0
KPD2 140235Z 29002KT 06/M04 A2984 RMK A01 T00551036  RH  052%=      5-min Rain = 0
KPD2 140236Z 29002KT 05/M04 A2984 RMK A01 T00541036  RH  052%=      5-min Rain = 0
KPD2 140237Z 29001KT 05/M04 A2985 RMK A01 T00531036  RH  052%=      5-min Rain = 0
KPD2 140238Z 29001KT 05/M04 A2985 RMK A01 T00531036  RH  053%=      5-min Rain = 0
KPD2 140239Z 29000KT 05/M04 A2985 RMK A01 T00521037  RH  053%=      5-min Rain = 0
KPD2 140240Z 29000KT 05/M04 A2985 RMK A01 T00521036  RH  053%=      5-min Rain = 0
KPD2 140241Z 29000KT 05/M04 A2985 RMK A01 T00521036  RH  053%=      5-min Rain = 0
KPD2 140242Z 29001KT 05/M04 A2985 RMK A01 T00521036  RH  053%=      5-min Rain = 0
KPD2 140243Z 29002KT 05/M04 A2985 RMK A01 T00521036  RH  053%=      5-min Rain = 0
KPD2 140244Z 30003KT 05/M04 A2985 RMK A01 T00521036  RH  053%=      5-min Rain = 0
KPD2 140245Z 30003KT 05/M04 A2985 RMK A01 T00521036  RH  053%=      5-min Rain = 0
KPD2 140246Z 29003KT 05/M04 A2985 RMK A01 T00521036  RH  053%=      5-min Rain = 0
KPD2 140247Z 30003KT 05/M04 A2985 RMK A01 T00521036  RH  053%=      5-min Rain = 0
KPD2 140248Z 30003KT 05/M04 A2985 RMK A01 T00531035  RH  053%=      5-min Rain = 0
KPD2 140249Z 30002KT 05/M04 A2985 RMK A01 T00531035  RH  053%=      5-min Rain = 0
KPD2 140250Z 29002KT 05/M04 A2985 RMK A01 T00541035  RH  053%=      5-min Rain = 0
KPD2 140251Z 28001KT 05/M04 A2985 RMK A01 T00541035  RH  053%=      5-min Rain = 0
KPD2 140252Z 30002KT 05/M04 A2985 RMK A01 T00541035  RH  053%=      5-min Rain = 0
KPD2 140253Z 31002KT 05/M04 A2985 RMK A01 T00541035  RH  053%=      5-min Rain = 0
KPD2 140254Z 33001KT 05/M04 A2985 RMK A01 T00531035  RH  053%=      5-min Rain = 0
KPD2 140255Z 34001KT 05/M04 A2985 RMK A01 T00531035  RH  053%=      5-min Rain = 0
KPD2 140256Z 32001KT 05/M04 A2985 RMK A01 T00521035  RH  053%=      5-min Rain = 0
KPD2 140257Z 30001KT 05/M04 A2985 RMK A01 T00511035  RH  054%=      5-min Rain = 0
KPD2 140258Z 29001KT 05/M04 A2985 RMK A01 T00511035  RH  054%=      5-min Rain = 0
KPD2 140259Z 29001KT 05/M04 A2985 RMK A01 T00501036  RH  054%=      5-min Rain = 0
KPD2 140300Z 29001KT 05/M04 A2985 RMK A01 T00491035  RH  054%=      5-min Rain = 0
KPD2 140301Z 30001KT 05/M04 A2984 RMK A01 T00491035  RH  055%=      5-min Rain = 0
KPD2 140302Z 30002KT 05/M04 A2984 RMK A01 T00481035  RH  055%=      5-min Rain = 0
KPD2 140303Z 29002KT 05/M04 A2984 RMK A01 T00471036  RH  055%=      5-min Rain = 0
KPD2 140304Z 29002KT 05/M04 A2984 RMK A01 T00471036  RH  055%=      5-min Rain = 0
KPD2 140305Z 28002KT 05/M04 A2984 RMK A01 T00461036  RH  055%=      5-min Rain = 0
KPD2 140306Z 27002KT 05/M04 A2984 RMK A01 T00461036  RH  056%=      5-min Rain = 0
KPD2 140307Z 27002KT 05/M04 A2984 RMK A01 T00451036  RH  056%=      5-min Rain = 0
KPD2 140308Z 27002KT 04/M04 A2984 RMK A01 T00441036  RH  056%=      5-min Rain = 0
KPD2 140309Z 28001KT 04/M04 A2984 RMK A01 T00431036  RH  057%=      5-min Rain = 0
KPD2 140310Z 32002KT 04/M04 A2984 RMK A01 T00421035  RH  057%=      5-min Rain = 0
KPD2 140311Z 34003KT 04/M04 A2984 RMK A01 T00411035  RH  057%=      5-min Rain = 0
KPD2 140312Z 36004KT 04/M04 A2984 RMK A01 T00401035  RH  058%=      5-min Rain = 0
KPD2 140313Z 36004KT 04/M03 A2984 RMK A01 T00411034  RH  058%=      5-min Rain = 0
KPD2 140314Z 33005KT 04/M03 A2984 RMK A01 T00411033  RH  059%=      5-min Rain = 0
KPD2 140315Z 32004KT 04/M03 A2984 RMK A01 T00411033  RH  059%=      5-min Rain = 0
KPD2 140316Z 33003KT 04/M03 A2984 RMK A01 T00411033  RH  058%=      5-min Rain = 0
KPD2 140317Z 33002KT 04/M03 A2984 RMK A01 T00411033  RH  058%=      5-min Rain = 0
KPD2 140318Z 33001KT 04/M03 A2984 RMK A01 T00421033  RH  058%=      5-min Rain = 0
KPD2 140319Z 32002KT 04/M03 A2984 RMK A01 T00421034  RH  058%=      5-min Rain = 0
KPD2 140320Z 31002KT 04/M03 A2984 RMK A01 T00421034  RH  058%=      5-min Rain = 0
KPD2 140321Z 31001KT 04/M03 A2984 RMK A01 T00421034  RH  058%=      5-min Rain = 0
KPD2 140322Z 30002KT 04/M03 A2984 RMK A01 T00411034  RH  058%=      5-min Rain = 0
KPD2 140323Z 30003KT 04/M03 A2984 RMK A01 T00411034  RH  058%=      5-min Rain = 0
KPD2 140324Z 29003KT 04/M03 A2984 RMK A01 T00411034  RH  058%=      5-min Rain = 0
KPD2 140325Z 29004KT 04/M04 A2984 RMK A01 T00411035  RH  058%=      5-min Rain = 0
KPD2 140326Z 30003KT 04/M04 A2984 RMK A01 T00411035  RH  057%=      5-min Rain = 0
KPD2 140327Z 32003KT 04/M04 A2984 RMK A01 T00411036  RH  058%=      5-min Rain = 0
KPD2 140328Z 32003KT 04/M04 A2984 RMK A01 T00401035  RH  058%=      5-min Rain = 0
KPD2 140329Z 32003KT 04/M04 A2984 RMK A01 T00401035  RH  058%=      5-min Rain = 0
KPD2 140330Z 32002KT 04/M04 A2984 RMK A01 T00391035  RH  058%=      5-min Rain = 0
KPD2 140331Z 32002KT 04/M04 A2984 RMK A01 T00391035  RH  058%=      5-min Rain = 0
KPD2 140332Z 30002KT 04/M04 A2984 RMK A01 T00391035  RH  058%=      5-min Rain = 0
KPD2 140333Z 30001KT 04/M04 A2984 RMK A01 T00391035  RH  058%=      5-min Rain = 0
KPD2 140334Z 30002KT 04/M04 A2984 RMK A01 T00391036  RH  058%=      5-min Rain = 0
KPD2 140335Z 29003KT 04/M04 A2984 RMK A01 T00391036  RH  058%=      5-min Rain = 0
KPD2 140336Z 29003KT 04/M04 A2984 RMK A01 T00391036  RH  058%=      5-min Rain = 0
KPD2 140337Z 29004KT 04/M04 A2985 RMK A01 T00381036  RH  058%=      5-min Rain = 0
KPD2 140338Z 29004KT 04/M04 A2985 RMK A01 T00381036  RH  058%=      5-min Rain = 0
KPD2 140339Z 29003KT 04/M04 A2985 RMK A01 T00381036  RH  058%=      5-min Rain = 0
KPD2 140340Z 29002KT 04/M04 A2985 RMK A01 T00381036  RH  058%=      5-min Rain = 0
KPD2 140341Z 29002KT 04/M04 A2985 RMK A01 T00381036  RH  059%=      5-min Rain = 0
KPD2 140342Z 29002KT 04/M04 A2985 RMK A01 T00371036  RH  059%=      5-min Rain = 0
KPD2 140343Z 29002KT 04/M04 A2985 RMK A01 T00371036  RH  059%=      5-min Rain = 0
KPD2 140344Z 28001KT 04/M04 A2985 RMK A01 T00361036  RH  059%=      5-min Rain = 0
KPD2 140345Z 29002KT 04/M04 A2985 RMK A01 T00361036  RH  059%=      5-min Rain = 0
KPD2 140346Z 28002KT 04/M04 A2985 RMK A01 T00361036  RH  059%=      5-min Rain = 0
KPD2 140347Z 28003KT 04/M04 A2985 RMK A01 T00351037  RH  059%=      5-min Rain = 0
KPD2 140348Z 28003KT 04/M04 A2984 RMK A01 T00351037  RH  059%=      5-min Rain = 0
KPD2 140349Z 29003KT 03/M04 A2984 RMK A01 T00341037  RH  060%=      5-min Rain = 0
KPD2 140350Z 29002KT 04/M04 A2984 RMK A01 T00351037  RH  059%=      5-min Rain = 0
KPD2 140351Z 28002KT 04/M04 A2984 RMK A01 T00351037  RH  060%=      5-min Rain = 0
KPD2 140352Z 29001KT 04/M04 A2984 RMK A01 T00351037  RH  059%=      5-min Rain = 0
KPD2 140353Z 29001KT 04/M04 A2984 RMK A01 T00351037  RH  059%=      5-min Rain = 0
KPD2 140354Z 29001KT 04/M04 A2984 RMK A01 T00351037  RH  059%=      5-min Rain = 0
KPD2 140355Z 29001KT 04/M04 A2984 RMK A01 T00351037  RH  059%=      5-min Rain = 0
KPD2 140356Z 30001KT 04/M04 A2984 RMK A01 T00361037  RH  059%=      5-min Rain = 0
KPD2 140357Z 30002KT 04/M04 A2983 RMK A01 T00371037  RH  058%=      5-min Rain = 0
KPD2 140358Z 32002KT 04/M04 A2983 RMK A01 T00381037  RH  058%=      5-min Rain = 0
KPD2 140359Z 30003KT 04/M04 A2983 RMK A01 T00381037  RH  058%=      5-min Rain = 0
KPD2 140400Z 32002KT 04/M04 A2983 RMK A01 T00391037  RH  058%=      5-min Rain = 0
KPD2 140401Z 33002KT 04/M04 A2983 RMK A01 T00391037  RH  058%=      5-min Rain = 0
KPD2 140402Z 34002KT 04/M04 A2983 RMK A01 T00391037  RH  058%=      5-min Rain = 0
KPD2 140403Z 33002KT 04/M04 A2983 RMK A01 T00391037  RH  057%=      5-min Rain = 0
KPD2 140404Z 34002KT 04/M04 A2983 RMK A01 T00411037  RH  057%=      5-min Rain = 0
KPD2 140405Z 33002KT 04/M04 A2983 RMK A01 T00421037  RH  057%=      5-min Rain = 0
KPD2 140406Z 34003KT 04/M04 A2983 RMK A01 T00411037  RH  056%=      5-min Rain = 0
KPD2 140407Z 34003KT 04/M04 A2983 RMK A01 T00431037  RH  056%=      5-min Rain = 0
KPD2 140408Z 32003KT 05/M04 A2982 RMK A01 T00451037  RH  055%=      5-min Rain = 0
KPD2 140409Z 31002KT 05/M04 A2983 RMK A01 T00461037  RH  055%=      5-min Rain = 0
KPD2 140410Z 30001KT 05/M04 A2983 RMK A01 T00451037  RH  055%=      5-min Rain = 0
KPD2 140411Z 24002KT 04/M04 A2983 RMK A01 T00421038  RH  056%=      5-min Rain = 0
KPD2 140412Z 25003KT 04/M04 A2983 RMK A01 T00371040  RH  057%=      5-min Rain = 0
KPD2 140413Z 25002KT 03/M04 A2983 RMK A01 T00331040  RH  059%=      5-min Rain = 0
KPD2 140414Z 25001KT 03/M04 A2983 RMK A01 T00311039  RH  060%=      5-min Rain = 0
KPD2 140415Z 25000KT 03/M04 A2983 RMK A01 T00291039  RH  061%=      5-min Rain = 0
KPD2 140416Z 00000KT 03/M04 A2982 RMK A01 T00281039  RH  062%=      5-min Rain = 0
KPD2 140417Z 00000KT 03/M04 A2982 RMK A01 T00271038  RH  062%=      5-min Rain = 0
KPD2 140418Z 25000KT 03/M04 A2982 RMK A01 T00271038  RH  063%=      5-min Rain = 0
KPD2 140419Z 00000KT 03/M04 A2982 RMK A01 T00261038  RH  063%=      5-min Rain = 0
KPD2 140420Z 25000KT 03/M04 A2982 RMK A01 T00261038  RH  063%=      5-min Rain = 0
KPD2 140421Z 25000KT 03/M04 A2982 RMK A01 T00261038  RH  063%=      5-min Rain = 0
KPD2 140422Z 25001KT 03/M04 A2982 RMK A01 T00251038  RH  063%=      5-min Rain = 0
KPD2 140423Z 25000KT 03/M04 A2982 RMK A01 T00251037  RH  064%=      5-min Rain = 0
KPD2 140424Z 00000KT 03/M04 A2982 RMK A01 T00251036  RH  064%=      5-min Rain = 0
KPD2 140425Z 00000KT 03/M04 A2982 RMK A01 T00251037  RH  064%=      5-min Rain = 0
KPD2 140426Z 00000KT 03/M04 A2982 RMK A01 T00251036  RH  064%=      5-min Rain = 0
KPD2 140427Z 00000KT 03/M04 A2982 RMK A01 T00261036  RH  064%=      5-min Rain = 0
KPD2 140428Z 00000KT 03/M04 A2982 RMK A01 T00261037  RH  063%=      5-min Rain = 0
KPD2 140429Z 25000KT 03/M04 A2982 RMK A01 T00261037  RH  063%=      5-min Rain = 0
KPD2 140430Z 25000KT 03/M04 A2982 RMK A01 T00261037  RH  063%=      5-min Rain = 0
KPD2 140431Z 25000KT 03/M04 A2982 RMK A01 T00261037  RH  063%=      5-min Rain = 0
KPD2 140432Z 25001KT 03/M04 A2982 RMK A01 T00261037  RH  063%=      5-min Rain = 0
KPD2 140433Z 27002KT 03/M04 A2982 RMK A01 T00251037  RH  063%=      5-min Rain = 0
KPD2 140434Z 26003KT 02/M04 A2982 RMK A01 T00241037  RH  064%=      5-min Rain = 0
KPD2 140435Z 25004KT 02/M04 A2982 RMK A01 T00241037  RH  064%=      5-min Rain = 0
KPD2 140436Z 25004KT 02/M04 A2982 RMK A01 T00241037  RH  064%=      5-min Rain = 0
KPD2 140437Z 25003KT 02/M04 A2982 RMK A01 T00241036  RH  065%=      5-min Rain = 0
KPD2 140438Z 26001KT 02/M04 A2982 RMK A01 T00241036  RH  065%=      5-min Rain = 0
KPD2 140439Z 34002KT 02/M04 A2983 RMK A01 T00231035  RH  065%=      5-min Rain = 0
KPD2 140440Z 36004KT 02/M04 A2983 RMK A01 T00231035  RH  065%=      5-min Rain = 0
KPD2 140441Z 00004KT 02/M04 A2983 RMK A01 T00231035  RH  065%=      5-min Rain = 0
KPD2 140442Z 36004KT 02/M04 A2983 RMK A01 T00231035  RH  066%=      5-min Rain = 0
KPD2 140443Z 34004KT 02/M03 A2983 RMK A01 T00231034  RH  066%=      5-min Rain = 0
KPD2 140444Z 33004KT 02/M03 A2983 RMK A01 T00231033  RH  066%=      5-min Rain = 0
KPD2 140445Z 32004KT 02/M03 A2983 RMK A01 T00231033  RH  066%=      5-min Rain = 0
KPD2 140446Z 32002KT 02/M03 A2983 RMK A01 T00241033  RH  066%=      5-min Rain = 0
KPD2 140447Z 33003KT 02/M03 A2983 RMK A01 T00241034  RH  066%=      5-min Rain = 0
KPD2 140448Z 31001KT 03/M03 A2983 RMK A01 T00251034  RH  065%=      5-min Rain = 0
KPD2 140449Z 30003KT 03/M03 A2983 RMK A01 T00261034  RH  065%=      5-min Rain = 0
KPD2 140450Z 29002KT 03/M04 A2983 RMK A01 T00261035  RH  064%=      5-min Rain = 0
KPD2 140451Z 31003KT 03/M04 A2983 RMK A01 T00261035  RH  064%=      5-min Rain = 0
KPD2 140452Z 32004KT 03/M04 A2983 RMK A01 T00271035  RH  064%=      5-min Rain = 0
KPD2 140453Z 32005KT 03/M04 A2983 RMK A01 T00281035  RH  063%=      5-min Rain = 0
KPD2 140454Z 32005KT 03/M04 A2984 RMK A01 T00281035  RH  063%=      5-min Rain = 0
KPD2 140455Z 32005KT 03/M04 A2984 RMK A01 T00291035  RH  063%=      5-min Rain = 0
KPD2 140456Z 34005KT 03/M04 A2984 RMK A01 T00311035  RH  062%=      5-min Rain = 0
KPD2 140457Z 33005KT 03/M04 A2984 RMK A01 T00321035  RH  062%=      5-min Rain = 0
KPD2 140458Z 32005KT 03/M03 A2983 RMK A01 T00331034  RH  061%=      5-min Rain = 0
KPD2 140459Z 34003KT 04/M03 A2983 RMK A01 T00351034  RH  061%=      5-min Rain = 0
KPD2 140500Z 33003KT 04/M03 A2983 RMK A01 T00361034  RH  060%=      5-min Rain = 0
KPD2 140501Z 34003KT 04/M04 A2983 RMK A01 T00361035  RH  060%=      5-min Rain = 0
KPD2 140502Z 33004KT 04/M04 A2983 RMK A01 T00381035  RH  059%=      5-min Rain = 0
KPD2 140503Z 34003KT 04/M04 A2983 RMK A01 T00391035  RH  059%=      5-min Rain = 0
KPD2 140504Z 01002KT 04/M04 A2983 RMK A01 T00381035  RH  059%=      5-min Rain = 0
KPD2 140505Z 00003KT 04/M04 A2983 RMK A01 T00381035  RH  059%=      5-min Rain = 0
KPD2 140506Z 35003KT 04/M04 A2982 RMK A01 T00381035  RH  059%=      5-min Rain = 0
KPD2 140507Z 35002KT 04/M04 A2982 RMK A01 T00381035  RH  059%=      5-min Rain = 0
KPD2 140508Z 35004KT 04/M04 A2982 RMK A01 T00381035  RH  059%=      5-min Rain = 0
KPD2 140509Z 33003KT 04/M04 A2982 RMK A01 T00381035  RH  059%=      5-min Rain = 0
KPD2 140510Z 34004KT 04/M04 A2982 RMK A01 T00381035  RH  059%=      5-min Rain = 0
KPD2 140511Z 31003KT 04/M04 A2982 RMK A01 T00381035  RH  059%=      5-min Rain = 0
KPD2 140512Z 31002KT 04/M04 A2982 RMK A01 T00391035  RH  059%=      5-min Rain = 0
KPD2 140513Z 30002KT 04/M04 A2982 RMK A01 T00391035  RH  059%=      5-min Rain = 0
KPD2 140514Z 30000KT 04/M04 A2982 RMK A01 T00391036  RH  058%=      5-min Rain = 0
KPD2 140515Z 23001KT 04/M04 A2982 RMK A01 T00391036  RH  058%=      5-min Rain = 0
KPD2 140516Z 22002KT 04/M04 A2982 RMK A01 T00391035  RH  059%=      5-min Rain = 0
KPD2 140517Z 22001KT 04/M03 A2982 RMK A01 T00391034  RH  059%=      5-min Rain = 0
KPD2 140518Z 22000KT 04/M04 A2982 RMK A01 T00381035  RH  059%=      5-min Rain = 0
KPD2 140519Z 00000KT 04/M04 A2982 RMK A01 T00371035  RH  059%=      5-min Rain = 0
KPD2 140520Z 00000KT 04/M04 A2982 RMK A01 T00361036  RH  059%=      5-min Rain = 0
KPD2 140521Z 26000KT 04/M04 A2982 RMK A01 T00351036  RH  060%=      5-min Rain = 0
KPD2 140522Z 31003KT 03/M04 A2982 RMK A01 T00341036  RH  060%=      5-min Rain = 0
KPD2 140523Z 31003KT 03/M04 A2982 RMK A01 T00321036  RH  061%=      5-min Rain = 0
KPD2 140524Z 34002KT 03/M04 A2982 RMK A01 T00311036  RH  061%=      5-min Rain = 0
KPD2 140525Z 35001KT 03/M04 A2982 RMK A01 T00301036  RH  062%=      5-min Rain = 0
KPD2 140526Z 35001KT 03/M04 A2982 RMK A01 T00281036  RH  063%=      5-min Rain = 0
KPD2 140527Z 35002KT 03/M04 A2982 RMK A01 T00271036  RH  063%=      5-min Rain = 0
KPD2 140528Z 34002KT 03/M04 A2982 RMK A01 T00261036  RH  063%=      5-min Rain = 0
KPD2 140529Z 34002KT 03/M04 A2982 RMK A01 T00261036  RH  064%=      5-min Rain = 0
KPD2 140530Z 00002KT 03/M04 A2982 RMK A01 T00261035  RH  064%=      5-min Rain = 0
KPD2 140531Z 01002KT 03/M04 A2982 RMK A01 T00261035  RH  064%=      5-min Rain = 0
KPD2 140532Z 36002KT 03/M03 A2981 RMK A01 T00281034  RH  064%=      5-min Rain = 0
KPD2 140533Z 00001KT 03/M03 A2981 RMK A01 T00291034  RH  063%=      5-min Rain = 0
KPD2 140534Z 00001KT 03/M03 A2981 RMK A01 T00311034  RH  062%=      5-min Rain = 0
KPD2 140535Z 36003KT 03/M03 A2981 RMK A01 T00331033  RH  062%=      5-min Rain = 0
KPD2 140536Z 35003KT 04/M03 A2981 RMK A01 T00351033  RH  061%=      5-min Rain = 0
KPD2 140537Z 36003KT 04/M03 A2981 RMK A01 T00371033  RH  060%=      5-min Rain = 0
KPD2 140538Z 36003KT 04/M03 A2981 RMK A01 T00381033  RH  060%=      5-min Rain = 0
KPD2 140539Z 34003KT 04/M03 A2982 RMK A01 T00401032  RH  059%=      5-min Rain = 0
KPD2 140540Z 33004KT 04/M03 A2982 RMK A01 T00421032  RH  059%=      5-min Rain = 0
KPD2 140541Z 33005KT 04/M03 A2983 RMK A01 T00431033  RH  058%=      5-min Rain = 0
KPD2 140542Z 31006KT 04/M03 A2983 RMK A01 T00411034  RH  058%=      5-min Rain = 0
KPD2 140543Z 30005KT 04/M03 A2983 RMK A01 T00391034  RH  059%=      5-min Rain = 0
KPD2 140544Z 30004KT 04/M04 A2983 RMK A01 T00361035  RH  060%=      5-min Rain = 0
KPD2 140545Z 32005KT 03/M04 A2983 RMK A01 T00331035  RH  061%=      5-min Rain = 0
KPD2 140546Z 32006KT 03/M03 A2984 RMK A01 T00321034  RH  062%=      5-min Rain = 0
KPD2 140547Z 32007KT 03/M03 A2984 RMK A01 T00311033  RH  063%=      5-min Rain = 0
KPD2 140548Z 31008KT 03/M03 A2984 RMK A01 T00301033  RH  063%=      5-min Rain = 0
KPD2 140549Z 30007KT 03/M03 A2984 RMK A01 T00311032  RH  063%=      5-min Rain = 0
KPD2 140550Z 29007KT 03/M03 A2983 RMK A01 T00321031  RH  063%=      5-min Rain = 0
KPD2 140551Z 29007KT 03/M03 A2983 RMK A01 T00331030  RH  063%=      5-min Rain = 0
KPD2 140552Z 31008KT 04/M03 A2983 RMK A01 T00351028  RH  063%=      5-min Rain = 0
KPD2 140553Z 33007KT 04/M03 A2983 RMK A01 T00381027  RH  063%=      5-min Rain = 0
KPD2 140554Z 32007KT 04/M03 A2982 RMK A01 T00391027  RH  062%=      5-min Rain = 0
KPD2 140555Z 31006KT 04/M03 A2982 RMK A01 T00401026  RH  062%=      5-min Rain = 0
KPD2 140556Z 32006KT 04/M02 A2981 RMK A01 T00431024  RH  062%=      5-min Rain = 0
KPD2 140557Z 33005KT 05/M02 A2981 RMK A01 T00451023  RH  061%=      5-min Rain = 0
KPD2 140558Z 35003KT 05/M02 A298 RMK A01 T00461023  RH  061%=      5-min Rain = 0
KPD2 140559Z 35002KT 05/M02 A298 RMK A01 T00471023  RH  060%=      5-min Rain = 0

Page generated in 0.1479 seconds.